Observation data for Smyer on 11/11/2019      Previous  Date       Current Mesonet Observations  Soil Data  Daily Summary Page  Observations in Plain Language
KSM2 110600Z 25009KT 13/08 A2988 RMK A01 T01320081  RH  071%=      5-min Rain = 0
KSM2 110601Z 25009KT 13/08 A2988 RMK A01 T01310081  RH  072%=      5-min Rain = 0
KSM2 110602Z 25009KT 13/08 A2988 RMK A01 T01300081  RH  072%=      5-min Rain = 0
KSM2 110603Z 25009KT 13/08 A2988 RMK A01 T01310081  RH  072%=      5-min Rain = 0
KSM2 110604Z 25009KT 13/08 A2988 RMK A01 T01300081  RH  072%=      5-min Rain = 0
KSM2 110605Z 25009KT 13/08 A2988 RMK A01 T01310081  RH  072%=      5-min Rain = 0
KSM2 110606Z 25009KT 13/08 A2988 RMK A01 T01310081  RH  072%=      5-min Rain = 0
KSM2 110607Z 25009KT 13/08 A2988 RMK A01 T01300081  RH  072%=      5-min Rain = 0
KSM2 110608Z 24009KT 13/08 A2988 RMK A01 T01300081  RH  072%=      5-min Rain = 0
KSM2 110609Z 25009KT 13/08 A2988 RMK A01 T01300081  RH  072%=      5-min Rain = 0
KSM2 110610Z 25008KT 13/08 A2988 RMK A01 T01310082  RH  072%=      5-min Rain = 0
KSM2 110611Z 25008KT 13/08 A2988 RMK A01 T01310081  RH  072%=      5-min Rain = 0
KSM2 110612Z 25008KT 13/08 A2988 RMK A01 T01310082  RH  072%=      5-min Rain = 0
KSM2 110613Z 25008KT 13/08 A2988 RMK A01 T01310082  RH  072%=      5-min Rain = 0
KSM2 110614Z 25008KT 13/08 A2988 RMK A01 T01300082  RH  072%=      5-min Rain = 0
KSM2 110615Z 24009KT 13/08 A2988 RMK A01 T01300082  RH  073%=      5-min Rain = 0
KSM2 110616Z 24009KT 13/08 A2988 RMK A01 T01310082  RH  072%=      5-min Rain = 0
KSM2 110617Z 24009KT 13/08 A2988 RMK A01 T01330083  RH  072%=      5-min Rain = 0
KSM2 110618Z 24009KT 13/08 A2988 RMK A01 T01340083  RH  071%=      5-min Rain = 0
KSM2 110619Z 24009KT 13/08 A2988 RMK A01 T01340083  RH  071%=      5-min Rain = 0
KSM2 110620Z 24009KT 13/08 A2988 RMK A01 T01340083  RH  071%=      5-min Rain = 0
KSM2 110621Z 24009KT 13/08 A2988 RMK A01 T01340083  RH  071%=      5-min Rain = 0
KSM2 110622Z 24010KT 13/08 A2988 RMK A01 T01340083  RH  071%=      5-min Rain = 0
KSM2 110623Z 24010KT 13/08 A2988 RMK A01 T01340083  RH  071%=      5-min Rain = 0
KSM2 110624Z 24010KT 14/08 A2988 RMK A01 T01350083  RH  071%=      5-min Rain = 0
KSM2 110625Z 24010KT 14/08 A2988 RMK A01 T01360083  RH  070%=      5-min Rain = 0
KSM2 110626Z 24010KT 14/08 A2988 RMK A01 T01360083  RH  070%=      5-min Rain = 0
KSM2 110627Z 25010KT 14/08 A2988 RMK A01 T01360083  RH  070%=      5-min Rain = 0
KSM2 110628Z 25010KT 14/08 A2988 RMK A01 T01360083  RH  070%=      5-min Rain = 0
KSM2 110629Z 25010KT 14/08 A2988 RMK A01 T01370083  RH  070%=      5-min Rain = 0
KSM2 110630Z 25010KT 14/08 A2988 RMK A01 T01370084  RH  070%=      5-min Rain = 0
KSM2 110631Z 25010KT 14/08 A2987 RMK A01 T01370083  RH  070%=      5-min Rain = 0
KSM2 110632Z 25010KT 14/08 A2987 RMK A01 T01370083  RH  070%=      5-min Rain = 0
KSM2 110633Z 25010KT 14/08 A2987 RMK A01 T01370083  RH  070%=      5-min Rain = 0
KSM2 110634Z 25010KT 14/08 A2987 RMK A01 T01370083  RH  070%=      5-min Rain = 0
KSM2 110635Z 25010KT 14/08 A2987 RMK A01 T01370084  RH  070%=      5-min Rain = 0
KSM2 110636Z 25010KT 14/08 A2987 RMK A01 T01360084  RH  070%=      5-min Rain = 0
KSM2 110637Z 25010KT 14/08 A2987 RMK A01 T01360083  RH  071%=      5-min Rain = 0
KSM2 110638Z 25010KT 14/08 A2987 RMK A01 T01350083  RH  071%=      5-min Rain = 0
KSM2 110639Z 25010KT 14/08 A2987 RMK A01 T01350083  RH  071%=      5-min Rain = 0
KSM2 110640Z 25011KT 14/08 A2987 RMK A01 T01350083  RH  071%=      5-min Rain = 0
KSM2 110641Z 25010KT 14/08 A2987 RMK A01 T01350083  RH  071%=      5-min Rain = 0
KSM2 110642Z 25010KT 14/08 A2987 RMK A01 T01360084  RH  071%=      5-min Rain = 0
KSM2 110643Z 25011KT 14/08 A2987 RMK A01 T01350083  RH  071%=      5-min Rain = 0
KSM2 110644Z 25010KT 14/08 A2987 RMK A01 T01350083  RH  071%=      5-min Rain = 0
KSM2 110645Z 25010KT 14/08 A2987 RMK A01 T01350083  RH  071%=      5-min Rain = 0
KSM2 110646Z 25010KT 14/08 A2987 RMK A01 T01360084  RH  071%=      5-min Rain = 0
KSM2 110647Z 25010KT 14/08 A2987 RMK A01 T01360084  RH  071%=      5-min Rain = 0
KSM2 110648Z 25010KT 14/08 A2987 RMK A01 T01370084  RH  070%=      5-min Rain = 0
KSM2 110649Z 25011KT 14/08 A2987 RMK A01 T01380084  RH  070%=      5-min Rain = 0
KSM2 110650Z 25011KT 14/08 A2987 RMK A01 T01380084  RH  070%=      5-min Rain = 0
KSM2 110651Z 25011KT 14/08 A2988 RMK A01 T01380084  RH  070%=      5-min Rain = 0
KSM2 110652Z 25010KT 14/08 A2988 RMK A01 T01380084  RH  070%=      5-min Rain = 0
KSM2 110653Z 26010KT 14/08 A2988 RMK A01 T01380084  RH  070%=      5-min Rain = 0
KSM2 110654Z 26009KT 14/08 A2988 RMK A01 T01370084  RH  070%=      5-min Rain = 0
KSM2 110655Z 26008KT 14/08 A2988 RMK A01 T01360084  RH  071%=      5-min Rain = 0
KSM2 110656Z 26008KT 14/08 A2988 RMK A01 T01350084  RH  071%=      5-min Rain = 0
KSM2 110657Z 26008KT 14/08 A2988 RMK A01 T01350084  RH  071%=      5-min Rain = 0
KSM2 110658Z 26008KT 14/08 A2988 RMK A01 T01350084  RH  072%=      5-min Rain = 0
KSM2 110659Z 26008KT 13/08 A2988 RMK A01 T01340084  RH  072%=      5-min Rain = 0
KSM2 110700Z 26008KT 13/09 A2988 RMK A01 T01340085  RH  072%=      5-min Rain = 0
KSM2 110701Z 26009KT 13/08 A2988 RMK A01 T01340084  RH  072%=      5-min Rain = 0
KSM2 110702Z 25008KT 13/08 A2988 RMK A01 T01330084  RH  072%=      5-min Rain = 0
KSM2 110703Z 26008KT 13/08 A2988 RMK A01 T01330084  RH  072%=      5-min Rain = 0
KSM2 110704Z 26008KT 13/08 A2988 RMK A01 T01330084  RH  072%=      5-min Rain = 0
KSM2 110705Z 26008KT 13/08 A2988 RMK A01 T01330084  RH  072%=      5-min Rain = 0
KSM2 110706Z 26009KT 13/08 A2988 RMK A01 T01330084  RH  072%=      5-min Rain = 0
KSM2 110707Z 25009KT 13/08 A2988 RMK A01 T01330084  RH  072%=      5-min Rain = 0
KSM2 110708Z 25009KT 13/08 A2988 RMK A01 T01320084  RH  073%=      5-min Rain = 0
KSM2 110709Z 25008KT 13/08 A2988 RMK A01 T01320084  RH  073%=      5-min Rain = 0
KSM2 110710Z 25008KT 13/08 A2988 RMK A01 T01330084  RH  073%=      5-min Rain = 0
KSM2 110711Z 25008KT 13/08 A2988 RMK A01 T01320084  RH  073%=      5-min Rain = 0
KSM2 110712Z 25009KT 13/08 A2988 RMK A01 T01320084  RH  073%=      5-min Rain = 0
KSM2 110713Z 25009KT 13/08 A2988 RMK A01 T01310084  RH  073%=      5-min Rain = 0
KSM2 110714Z 26009KT 13/08 A2988 RMK A01 T01310084  RH  073%=      5-min Rain = 0
KSM2 110715Z 25009KT 13/08 A2988 RMK A01 T01320084  RH  073%=      5-min Rain = 0
KSM2 110716Z 25009KT 13/09 A2988 RMK A01 T01330085  RH  072%=      5-min Rain = 0
KSM2 110717Z 25008KT 13/08 A2988 RMK A01 T01330084  RH  072%=      5-min Rain = 0
KSM2 110718Z 26008KT 13/08 A2988 RMK A01 T01330084  RH  072%=      5-min Rain = 0
KSM2 110719Z 26008KT 13/08 A2988 RMK A01 T01330084  RH  072%=      5-min Rain = 0
KSM2 110720Z 26009KT 13/08 A2988 RMK A01 T01330084  RH  072%=      5-min Rain = 0
KSM2 110721Z 25009KT 13/09 A2988 RMK A01 T01330085  RH  072%=      5-min Rain = 0
KSM2 110722Z 25008KT 13/08 A2988 RMK A01 T01320084  RH  073%=      5-min Rain = 0
KSM2 110723Z 26008KT 13/08 A2988 RMK A01 T01320084  RH  073%=      5-min Rain = 0
KSM2 110724Z 26008KT 13/08 A2988 RMK A01 T01310084  RH  073%=      5-min Rain = 0
KSM2 110725Z 26007KT 13/09 A2988 RMK A01 T01320085  RH  073%=      5-min Rain = 0
KSM2 110726Z 26008KT 13/08 A2988 RMK A01 T01310084  RH  073%=      5-min Rain = 0
KSM2 110727Z 26008KT 13/09 A2988 RMK A01 T01320085  RH  073%=      5-min Rain = 0
KSM2 110728Z 26009KT 13/08 A2988 RMK A01 T01310084  RH  073%=      5-min Rain = 0
KSM2 110729Z 26008KT 13/08 A2988 RMK A01 T01300084  RH  073%=      5-min Rain = 0
KSM2 110730Z 26008KT 13/08 A2988 RMK A01 T01310084  RH  073%=      5-min Rain = 0
KSM2 110731Z 26008KT 13/08 A2988 RMK A01 T01310084  RH  073%=      5-min Rain = 0
KSM2 110732Z 26008KT 13/08 A2988 RMK A01 T01310084  RH  073%=      5-min Rain = 0
KSM2 110733Z 26008KT 13/08 A2988 RMK A01 T01320084  RH  073%=      5-min Rain = 0
KSM2 110734Z 26007KT 13/08 A2988 RMK A01 T01310084  RH  073%=      5-min Rain = 0
KSM2 110735Z 26008KT 13/08 A2988 RMK A01 T01310084  RH  073%=      5-min Rain = 0
KSM2 110736Z 27007KT 13/08 A2988 RMK A01 T01320084  RH  073%=      5-min Rain = 0
KSM2 110737Z 27007KT 13/08 A2989 RMK A01 T01310084  RH  073%=      5-min Rain = 0
KSM2 110738Z 29006KT 13/08 A2989 RMK A01 T01310084  RH  073%=      5-min Rain = 0
KSM2 110739Z 31006KT 13/08 A2989 RMK A01 T01300084  RH  073%=      5-min Rain = 0
KSM2 110740Z 34008KT 13/08 A2989 RMK A01 T01290083  RH  074%=      5-min Rain = 0
KSM2 110741Z 34010KT 12/08 A299 RMK A01 T01240081  RH  075%=      5-min Rain = 0
KSM2 110742Z 33009KT 12/08 A299 RMK A01 T01200080  RH  077%=      5-min Rain = 0
KSM2 110743Z 31007KT 12/08 A299 RMK A01 T01180081  RH  078%=      5-min Rain = 0
KSM2 110744Z 30006KT 12/08 A2989 RMK A01 T01180081  RH  078%=      5-min Rain = 0
KSM2 110745Z 30006KT 12/08 A2989 RMK A01 T01180081  RH  078%=      5-min Rain = 0
KSM2 110746Z 32007KT 12/08 A2989 RMK A01 T01190082  RH  078%=      5-min Rain = 0
KSM2 110747Z 33009KT 12/08 A299 RMK A01 T01200082  RH  078%=      5-min Rain = 0
KSM2 110748Z 30007KT 12/08 A299 RMK A01 T01200082  RH  078%=      5-min Rain = 0
KSM2 110749Z 29007KT 12/08 A299 RMK A01 T01200083  RH  078%=      5-min Rain = 0
KSM2 110750Z 30007KT 12/08 A299 RMK A01 T01220084  RH  077%=      5-min Rain = 0
KSM2 110751Z 31007KT 13/08 A299 RMK A01 T01250084  RH  076%=      5-min Rain = 0
KSM2 110752Z 31007KT 13/08 A299 RMK A01 T01270083  RH  075%=      5-min Rain = 0
KSM2 110753Z 30007KT 13/08 A2989 RMK A01 T01270084  RH  075%=      5-min Rain = 0
KSM2 110754Z 30007KT 13/08 A299 RMK A01 T01270083  RH  075%=      5-min Rain = 0
KSM2 110755Z 30008KT 13/08 A299 RMK A01 T01280083  RH  074%=      5-min Rain = 0
KSM2 110756Z 30007KT 13/08 A299 RMK A01 T01280083  RH  074%=      5-min Rain = 0
KSM2 110757Z 30007KT 13/08 A299 RMK A01 T01280083  RH  074%=      5-min Rain = 0
KSM2 110758Z 31006KT 13/08 A299 RMK A01 T01280083  RH  074%=      5-min Rain = 0
KSM2 110759Z 31007KT 13/08 A299 RMK A01 T01270082  RH  074%=      5-min Rain = 0
KSM2 110800Z 29007KT 13/08 A299 RMK A01 T01250082  RH  075%=      5-min Rain = 0
KSM2 110801Z 29007KT 13/08 A299 RMK A01 T01250082  RH  075%=      5-min Rain = 0
KSM2 110802Z 29006KT 12/08 A299 RMK A01 T01240082  RH  075%=      5-min Rain = 0
KSM2 110803Z 30007KT 12/08 A299 RMK A01 T01240082  RH  075%=      5-min Rain = 0
KSM2 110804Z 31006KT 12/08 A299 RMK A01 T01240082  RH  075%=      5-min Rain = 0
KSM2 110805Z 34007KT 12/08 A299 RMK A01 T01240081  RH  075%=      5-min Rain = 0
KSM2 110806Z 36008KT 12/08 A299 RMK A01 T01210080  RH  076%=      5-min Rain = 0
KSM2 110807Z 35007KT 12/08 A299 RMK A01 T01160078  RH  077%=      5-min Rain = 0
KSM2 110808Z 32006KT 11/08 A299 RMK A01 T01130077  RH  079%=      5-min Rain = 0
KSM2 110809Z 30006KT 11/08 A299 RMK A01 T01120078  RH  079%=      5-min Rain = 0
KSM2 110810Z 29006KT 11/08 A299 RMK A01 T01130079  RH  080%=      5-min Rain = 0
KSM2 110811Z 29007KT 11/08 A299 RMK A01 T01140080  RH  079%=      5-min Rain = 0
KSM2 110812Z 28006KT 12/08 A299 RMK A01 T01150080  RH  079%=      5-min Rain = 0
KSM2 110813Z 28007KT 12/08 A299 RMK A01 T01160080  RH  079%=      5-min Rain = 0
KSM2 110814Z 28007KT 12/08 A2989 RMK A01 T01170081  RH  078%=      5-min Rain = 0
KSM2 110815Z 28007KT 12/08 A2989 RMK A01 T01190082  RH  078%=      5-min Rain = 0
KSM2 110816Z 28007KT 12/08 A299 RMK A01 T01210082  RH  077%=      5-min Rain = 0
KSM2 110817Z 28007KT 12/08 A299 RMK A01 T01210081  RH  077%=      5-min Rain = 0
KSM2 110818Z 29007KT 12/08 A299 RMK A01 T01220081  RH  076%=      5-min Rain = 0
KSM2 110819Z 35007KT 12/08 A299 RMK A01 T01210081  RH  076%=      5-min Rain = 0
KSM2 110820Z 36007KT 12/08 A299 RMK A01 T01180079  RH  077%=      5-min Rain = 0
KSM2 110821Z 36006KT 12/08 A299 RMK A01 T01150078  RH  078%=      5-min Rain = 0
KSM2 110822Z 00006KT 11/08 A299 RMK A01 T01120077  RH  079%=      5-min Rain = 0
KSM2 110823Z 33008KT 11/08 A299 RMK A01 T01110078  RH  080%=      5-min Rain = 0
KSM2 110824Z 31006KT 11/08 A299 RMK A01 T01120079  RH  080%=      5-min Rain = 0
KSM2 110825Z 31007KT 12/08 A299 RMK A01 T01150079  RH  079%=      5-min Rain = 0
KSM2 110826Z 30007KT 12/08 A299 RMK A01 T01160079  RH  078%=      5-min Rain = 0
KSM2 110827Z 30007KT 12/08 A299 RMK A01 T01160079  RH  078%=      5-min Rain = 0
KSM2 110828Z 33008KT 12/08 A299 RMK A01 T01170079  RH  077%=      5-min Rain = 0
KSM2 110829Z 35009KT 12/08 A299 RMK A01 T01170079  RH  077%=      5-min Rain = 0
KSM2 110830Z 33006KT 12/08 A299 RMK A01 T01160079  RH  078%=      5-min Rain = 0
KSM2 110831Z 32005KT 11/08 A299 RMK A01 T01140078  RH  078%=      5-min Rain = 0
KSM2 110832Z 31005KT 11/08 A299 RMK A01 T01140078  RH  079%=      5-min Rain = 0
KSM2 110833Z 33004KT 11/08 A299 RMK A01 T01130078  RH  079%=      5-min Rain = 0
KSM2 110834Z 35006KT 11/08 A299 RMK A01 T01130078  RH  079%=      5-min Rain = 0
KSM2 110835Z 35008KT 11/08 A299 RMK A01 T01120077  RH  079%=      5-min Rain = 0
KSM2 110836Z 35007KT 11/08 A299 RMK A01 T01100077  RH  080%=      5-min Rain = 0
KSM2 110837Z 35006KT 11/08 A299 RMK A01 T01090077  RH  080%=      5-min Rain = 0
KSM2 110838Z 34007KT 11/08 A299 RMK A01 T01090077  RH  081%=      5-min Rain = 0
KSM2 110839Z 34007KT 11/08 A2991 RMK A01 T01080077  RH  081%=      5-min Rain = 0
KSM2 110840Z 34007KT 11/08 A299 RMK A01 T01070076  RH  081%=      5-min Rain = 0
KSM2 110841Z 34007KT 11/08 A299 RMK A01 T01070076  RH  081%=      5-min Rain = 0
KSM2 110842Z 33008KT 11/08 A2991 RMK A01 T01070076  RH  081%=      5-min Rain = 0
KSM2 110843Z 33008KT 11/08 A2991 RMK A01 T01070076  RH  081%=      5-min Rain = 0
KSM2 110844Z 33007KT 11/08 A2991 RMK A01 T01080076  RH  081%=      5-min Rain = 0
KSM2 110845Z 33006KT 11/08 A2991 RMK A01 T01080076  RH  080%=      5-min Rain = 0
KSM2 110846Z 32006KT 11/08 A2991 RMK A01 T01080075  RH  080%=      5-min Rain = 0
KSM2 110847Z 31005KT 11/08 A2991 RMK A01 T01080075  RH  080%=      5-min Rain = 0
KSM2 110848Z 31005KT 11/08 A2991 RMK A01 T01080075  RH  080%=      5-min Rain = 0
KSM2 110849Z 30006KT 11/08 A2991 RMK A01 T01080075  RH  080%=      5-min Rain = 0
KSM2 110850Z 30006KT 11/08 A2991 RMK A01 T01090075  RH  080%=      5-min Rain = 0
KSM2 110851Z 30007KT 11/08 A2991 RMK A01 T01090075  RH  079%=      5-min Rain = 0
KSM2 110852Z 30007KT 11/08 A2991 RMK A01 T01110075  RH  078%=      5-min Rain = 0
KSM2 110853Z 30007KT 11/07 A2991 RMK A01 T01110074  RH  078%=      5-min Rain = 0
KSM2 110854Z 30008KT 11/07 A2991 RMK A01 T01120073  RH  077%=      5-min Rain = 0
KSM2 110855Z 30008KT 11/07 A2991 RMK A01 T01130073  RH  076%=      5-min Rain = 0
KSM2 110856Z 30008KT 11/07 A2991 RMK A01 T01140073  RH  076%=      5-min Rain = 0
KSM2 110857Z 31008KT 11/07 A2991 RMK A01 T01140073  RH  076%=      5-min Rain = 0
KSM2 110858Z 31008KT 11/07 A2991 RMK A01 T01140073  RH  076%=      5-min Rain = 0
KSM2 110859Z 31009KT 12/07 A2991 RMK A01 T01150073  RH  075%=      5-min Rain = 0
KSM2 110900Z 31009KT 12/07 A2991 RMK A01 T01150072  RH  075%=      5-min Rain = 0
KSM2 110901Z 31008KT 12/07 A2992 RMK A01 T01150072  RH  075%=      5-min Rain = 0
KSM2 110902Z 31008KT 12/07 A2991 RMK A01 T01150072  RH  075%=      5-min Rain = 0
KSM2 110903Z 31009KT 12/07 A2991 RMK A01 T01150072  RH  075%=      5-min Rain = 0
KSM2 110904Z 31009KT 12/07 A2991 RMK A01 T01150073  RH  075%=      5-min Rain = 0
KSM2 110905Z 32009KT 11/07 A2991 RMK A01 T01140072  RH  075%=      5-min Rain = 0
KSM2 110906Z 31008KT 11/07 A2991 RMK A01 T01140072  RH  075%=      5-min Rain = 0
KSM2 110907Z 31009KT 11/07 A2991 RMK A01 T01140072  RH  075%=      5-min Rain = 0
KSM2 110908Z 31009KT 11/07 A2992 RMK A01 T01140072  RH  075%=      5-min Rain = 0
KSM2 110909Z 31008KT 11/07 A2992 RMK A01 T01140072  RH  076%=      5-min Rain = 0
KSM2 110910Z 31008KT 11/07 A2992 RMK A01 T01130072  RH  076%=      5-min Rain = 0
KSM2 110911Z 31008KT 11/07 A2992 RMK A01 T01130072  RH  076%=      5-min Rain = 0
KSM2 110912Z 31008KT 11/07 A2991 RMK A01 T01130072  RH  076%=      5-min Rain = 0
KSM2 110913Z 31008KT 11/07 A2992 RMK A01 T01130071  RH  076%=      5-min Rain = 0
KSM2 110914Z 31008KT 11/07 A2992 RMK A01 T01120071  RH  076%=      5-min Rain = 0
KSM2 110915Z 31007KT 11/07 A2992 RMK A01 T01120070  RH  075%=      5-min Rain = 0
KSM2 110916Z 30008KT 11/07 A2992 RMK A01 T01130070  RH  075%=      5-min Rain = 0
KSM2 110917Z 30007KT 11/07 A2992 RMK A01 T01120070  RH  075%=      5-min Rain = 0
KSM2 110918Z 30007KT 11/07 A2992 RMK A01 T01120070  RH  075%=      5-min Rain = 0
KSM2 110919Z 30007KT 11/07 A2992 RMK A01 T01120070  RH  075%=      5-min Rain = 0
KSM2 110920Z 31008KT 11/07 A2992 RMK A01 T01120070  RH  075%=      5-min Rain = 0
KSM2 110921Z 31008KT 11/07 A2992 RMK A01 T01120069  RH  075%=      5-min Rain = 0
KSM2 110922Z 31009KT 11/07 A2992 RMK A01 T01120068  RH  074%=      5-min Rain = 0
KSM2 110923Z 31009KT 11/07 A2992 RMK A01 T01130068  RH  074%=      5-min Rain = 0
KSM2 110924Z 31010KT 11/07 A2992 RMK A01 T01140067  RH  073%=      5-min Rain = 0
KSM2 110925Z 31010KT 11/07 A2992 RMK A01 T01140066  RH  072%=      5-min Rain = 0
KSM2 110926Z 31010KT 12/07 A2992 RMK A01 T01150066  RH  072%=      5-min Rain = 0
KSM2 110927Z 32010KT 12/07 A2992 RMK A01 T01150066  RH  072%=      5-min Rain = 0
KSM2 110928Z 32010KT 12/07 A2992 RMK A01 T01150066  RH  072%=      5-min Rain = 0
KSM2 110929Z 32011KT 12/07 A2993 RMK A01 T01150065  RH  072%=      5-min Rain = 0
KSM2 110930Z 32012KT 12/06 A2993 RMK A01 T01150064  RH  071%=      5-min Rain = 0
KSM2 110931Z 32012KT 12/06 A2993 RMK A01 T01150062  RH  070%=      5-min Rain = 0
KSM2 110932Z 32014KT 12/06 A2993 RMK A01 T01160061  RH  069%=      5-min Rain = 0
KSM2 110933Z 32014KT 12/06 A2993 RMK A01 T01170059  RH  067%=      5-min Rain = 0
KSM2 110934Z 32013KT 12/06 A2994 RMK A01 T01180059  RH  067%=      5-min Rain = 0
KSM2 110935Z 32014KT 12/06 A2994 RMK A01 T01180057  RH  066%=      5-min Rain = 0
KSM2 110936Z 33014KT 12/06 A2994 RMK A01 T01180056  RH  066%=      5-min Rain = 0
KSM2 110937Z 32015KT 12/05 A2994 RMK A01 T01170054  RH  065%=      5-min Rain = 0
KSM2 110938Z 33015KT 12/05 A2994 RMK A01 T01170051  RH  064%=      5-min Rain = 0
KSM2 110939Z 33015KT 12/05 A2994 RMK A01 T01170051  RH  064%=      5-min Rain = 0
KSM2 110940Z 33014KT 12/05 A2995 RMK A01 T01170050  RH  064%=      5-min Rain = 0
KSM2 110941Z 33016KT 12/05 A2995 RMK A01 T01150045  RH  062%=      5-min Rain = 0
KSM2 110942Z 34015KT 12/04 A2995 RMK A01 T01150041  RH  061%=      5-min Rain = 0
KSM2 110943Z 34017KT 11/04 A2995 RMK A01 T01140039  RH  060%=      5-min Rain = 0
KSM2 110944Z 34017KT 11/04 A2995 RMK A01 T01130036  RH  059%=      5-min Rain = 0
KSM2 110945Z 35018KT 11/03 A2995 RMK A01 T01120031  RH  058%=      5-min Rain = 0
KSM2 110946Z 35018KT 11/03 A2995 RMK A01 T01110029  RH  057%=      5-min Rain = 0
KSM2 110947Z 35017KT 11/03 A2995 RMK A01 T01100027  RH  056%=      5-min Rain = 0
KSM2 110948Z 35018KT 11/03 A2995 RMK A01 T01090025  RH  056%=      5-min Rain = 0
KSM2 110949Z 35015KT 11/03 A2995 RMK A01 T01080025  RH  057%=      5-min Rain = 0
KSM2 110950Z 35016KT 11/03 A2995 RMK A01 T01060025  RH  057%=      5-min Rain = 0
KSM2 110951Z 35015KT 11/03 A2996 RMK A01 T01050026  RH  058%=      5-min Rain = 0
KSM2 110952Z 35017G22KT 10/03 A2996 RMK A01 T01040025  RH  058%=      5-min Rain = 0
KSM2 110953Z 35020KT 10/02 A2996 RMK A01 T01030022  RH  057%=      5-min Rain = 0
KSM2 110954Z 35019KT 10/02 A2996 RMK A01 T01020021  RH  057%=      5-min Rain = 0
KSM2 110955Z 35015KT 10/02 A2996 RMK A01 T01010022  RH  058%=      5-min Rain = 0
KSM2 110956Z 35019KT 10/02 A2996 RMK A01 T00990023  RH  059%=      5-min Rain = 0
KSM2 110957Z 35018KT 10/02 A2996 RMK A01 T00980022  RH  059%=      5-min Rain = 0
KSM2 110958Z 35016KT 10/02 A2996 RMK A01 T00970022  RH  060%=      5-min Rain = 0
KSM2 110959Z 34016KT 10/02 A2996 RMK A01 T00960023  RH  060%=      5-min Rain = 0
KSM2 111000Z 35020KT 10/02 A2996 RMK A01 T00950022  RH  060%=      5-min Rain = 0
KSM2 111001Z 35019KT 10/02 A2996 RMK A01 T00950021  RH  060%=      5-min Rain = 0
KSM2 111002Z 35020KT 10/02 A2997 RMK A01 T00950021  RH  060%=      5-min Rain = 0
KSM2 111003Z 35019KT 09/02 A2997 RMK A01 T00940021  RH  060%=      5-min Rain = 0
KSM2 111004Z 35020KT 09/02 A2997 RMK A01 T00930020  RH  061%=      5-min Rain = 0
KSM2 111005Z 35020KT 09/02 A2997 RMK A01 T00920020  RH  061%=      5-min Rain = 0
KSM2 111006Z 35021KT 09/02 A2997 RMK A01 T00920020  RH  061%=      5-min Rain = 0
KSM2 111007Z 35021KT 09/02 A2997 RMK A01 T00910020  RH  061%=      5-min Rain = 0
KSM2 111008Z 35019KT 09/02 A2997 RMK A01 T00910021  RH  061%=      5-min Rain = 0
KSM2 111009Z 35022KT 09/02 A2997 RMK A01 T00900021  RH  062%=      5-min Rain = 0
KSM2 111010Z 35023KT 09/02 A2997 RMK A01 T00890021  RH  062%=      5-min Rain = 0
KSM2 111011Z 35020G25KT 09/02 A2997 RMK A01 T00880021  RH  063%=      5-min Rain = 0
KSM2 111012Z 36020KT 09/02 A2997 RMK A01 T00870021  RH  063%=      5-min Rain = 0
KSM2 111013Z 35023KT 09/02 A2997 RMK A01 T00860021  RH  063%=      5-min Rain = 0
KSM2 111014Z 35020KT 09/02 A2998 RMK A01 T00860021  RH  064%=      5-min Rain = 0
KSM2 111015Z 35022KT 09/02 A2998 RMK A01 T00850021  RH  064%=      5-min Rain = 0
KSM2 111016Z 35023G28KT 08/02 A2998 RMK A01 T00840021  RH  064%=      5-min Rain = 0
KSM2 111017Z 36020G26KT 08/02 A2998 RMK A01 T00840021  RH  064%=      5-min Rain = 0
KSM2 111018Z 35021KT 08/02 A2998 RMK A01 T00830021  RH  065%=      5-min Rain = 0
KSM2 111019Z 36019KT 08/02 A2999 RMK A01 T00830021  RH  065%=      5-min Rain = 0
KSM2 111020Z 36020G25KT 08/02 A2999 RMK A01 T00820021  RH  065%=      5-min Rain = 0
KSM2 111021Z 35015KT 08/02 A2999 RMK A01 T00820022  RH  066%=      5-min Rain = 0
KSM2 111022Z 35018KT 08/02 A2999 RMK A01 T00810022  RH  066%=      5-min Rain = 0
KSM2 111023Z 36017KT 08/02 A2999 RMK A01 T00800022  RH  066%=      5-min Rain = 0
KSM2 111024Z 36017KT 08/02 A2999 RMK A01 T00800022  RH  067%=      5-min Rain = 0
KSM2 111025Z 36015G20KT 08/02 A2999 RMK A01 T00790023  RH  067%=      5-min Rain = 0
KSM2 111026Z 00020KT 08/02 A2999 RMK A01 T00790023  RH  068%=      5-min Rain = 0
KSM2 111027Z 36019G24KT 08/02 A2999 RMK A01 T00790022  RH  067%=      5-min Rain = 0
KSM2 111028Z 36020KT 08/02 A30 RMK A01 T00780022  RH  068%=      5-min Rain = 0
KSM2 111029Z 00020KT 08/02 A2999 RMK A01 T00780021  RH  068%=      5-min Rain = 0
KSM2 111030Z 36016KT 08/02 A30 RMK A01 T00770021  RH  068%=      5-min Rain = 0
KSM2 111031Z 36018KT 08/02 A30 RMK A01 T00770022  RH  068%=      5-min Rain = 0
KSM2 111032Z 36017KT 08/02 A30 RMK A01 T00760021  RH  068%=      5-min Rain = 0
KSM2 111033Z 36015KT 08/02 A30 RMK A01 T00750022  RH  069%=      5-min Rain = 0
KSM2 111034Z 35014KT 08/02 A30 RMK A01 T00750023  RH  069%=      5-min Rain = 0
KSM2 111035Z 35015KT 08/02 A30 RMK A01 T00750023  RH  070%=      5-min Rain = 0
KSM2 111036Z 35017KT 07/02 A3001 RMK A01 T00740022  RH  069%=      5-min Rain = 0
KSM2 111037Z 36018G23KT 07/02 A3001 RMK A01 T00740022  RH  069%=      5-min Rain = 0
KSM2 111038Z 35019KT 07/02 A30 RMK A01 T00740021  RH  069%=      5-min Rain = 0
KSM2 111039Z 36017KT 07/02 A3001 RMK A01 T00740022  RH  069%=      5-min Rain = 0
KSM2 111040Z 36018KT 07/02 A3001 RMK A01 T00730021  RH  070%=      5-min Rain = 0
KSM2 111041Z 34016KT 07/02 A3001 RMK A01 T00730021  RH  070%=      5-min Rain = 0
KSM2 111042Z 35019KT 07/02 A3001 RMK A01 T00720022  RH  070%=      5-min Rain = 0
KSM2 111043Z 35018KT 07/02 A3001 RMK A01 T00720022  RH  071%=      5-min Rain = 0
KSM2 111044Z 35022KT 07/02 A3001 RMK A01 T00710022  RH  071%=      5-min Rain = 0
KSM2 111045Z 35022KT 07/02 A3001 RMK A01 T00710022  RH  071%=      5-min Rain = 0
KSM2 111046Z 35022KT 07/02 A3002 RMK A01 T00710022  RH  071%=      5-min Rain = 0
KSM2 111047Z 35022KT 07/02 A3002 RMK A01 T00700022  RH  071%=      5-min Rain = 0
KSM2 111048Z 36022KT 07/02 A3002 RMK A01 T00700022  RH  072%=      5-min Rain = 0
KSM2 111049Z 36023KT 07/02 A3002 RMK A01 T00690022  RH  072%=      5-min Rain = 0
KSM2 111050Z 01025KT 07/02 A3002 RMK A01 T00690022  RH  072%=      5-min Rain = 0
KSM2 111051Z 36021KT 07/02 A3002 RMK A01 T00690022  RH  072%=      5-min Rain = 0
KSM2 111052Z 36020KT 07/02 A3002 RMK A01 T00690022  RH  072%=      5-min Rain = 0
KSM2 111053Z 36017KT 07/02 A3002 RMK A01 T00680023  RH  073%=      5-min Rain = 0
KSM2 111054Z 36017KT 07/02 A3002 RMK A01 T00670023  RH  073%=      5-min Rain = 0
KSM2 111055Z 36018KT 07/02 A3002 RMK A01 T00670023  RH  073%=      5-min Rain = 0
KSM2 111056Z 35017KT 07/02 A3003 RMK A01 T00670023  RH  073%=      5-min Rain = 0
KSM2 111057Z 36016KT 07/02 A3003 RMK A01 T00670023  RH  073%=      5-min Rain = 0
KSM2 111058Z 36015KT 07/02 A3003 RMK A01 T00670023  RH  073%=      5-min Rain = 0
KSM2 111059Z 35018KT 07/02 A3003 RMK A01 T00670023  RH  073%=      5-min Rain = 0
KSM2 111100Z 35018KT 07/02 A3003 RMK A01 T00670022  RH  073%=      5-min Rain = 0
KSM2 111101Z 35016KT 07/02 A3003 RMK A01 T00670022  RH  073%=      5-min Rain = 0
KSM2 111102Z 35015KT 07/02 A3003 RMK A01 T00670023  RH  073%=      5-min Rain = 0
KSM2 111103Z 35018KT 07/02 A3003 RMK A01 T00670022  RH  073%=      5-min Rain = 0
KSM2 111104Z 36020KT 07/02 A3003 RMK A01 T00670022  RH  073%=      5-min Rain = 0
KSM2 111105Z 35020G26KT 07/02 A3003 RMK A01 T00660023  RH  074%=      5-min Rain = 0
KSM2 111106Z 36021KT 07/02 A3003 RMK A01 T00650023  RH  074%=      5-min Rain = 0
KSM2 111107Z 36022KT 07/02 A3003 RMK A01 T00650023  RH  075%=      5-min Rain = 0
KSM2 111108Z 36018G23KT 07/02 A3003 RMK A01 T00650023  RH  075%=      5-min Rain = 0
KSM2 111109Z 36021KT 06/02 A3004 RMK A01 T00640024  RH  075%=      5-min Rain = 0
KSM2 111110Z 36020KT 06/02 A3004 RMK A01 T00640023  RH  075%=      5-min Rain = 0
KSM2 111111Z 35019KT 06/02 A3004 RMK A01 T00640024  RH  076%=      5-min Rain = 0
KSM2 111112Z 36017KT 06/02 A3004 RMK A01 T00630024  RH  076%=      5-min Rain = 0
KSM2 111113Z 36017KT 06/02 A3004 RMK A01 T00630024  RH  076%=      5-min Rain = 0
KSM2 111114Z 36020KT 06/02 A3004 RMK A01 T00630024  RH  076%=      5-min Rain = 0
KSM2 111115Z 36020KT 06/02 A3004 RMK A01 T00630024  RH  076%=      5-min Rain = 0
KSM2 111116Z 00020KT 06/02 A3005 RMK A01 T00620024  RH  076%=      5-min Rain = 0
KSM2 111117Z 00016KT 06/02 A3005 RMK A01 T00620024  RH  077%=      5-min Rain = 0
KSM2 111118Z 36017G22KT 06/02 A3005 RMK A01 T00620024  RH  077%=      5-min Rain = 0
KSM2 111119Z 36018KT 06/03 A3005 RMK A01 T00620025  RH  077%=      5-min Rain = 0
KSM2 111120Z 36019KT 06/03 A3005 RMK A01 T00610025  RH  077%=      5-min Rain = 0
KSM2 111121Z 36018G24KT 06/03 A3005 RMK A01 T00610025  RH  077%=      5-min Rain = 0
KSM2 111122Z 36020G27KT 06/03 A3005 RMK A01 T00610025  RH  078%=      5-min Rain = 0
KSM2 111123Z 00020KT 06/03 A3005 RMK A01 T00610025  RH  078%=      5-min Rain = 0
KSM2 111124Z 36019KT 06/03 A3006 RMK A01 T00610026  RH  078%=      5-min Rain = 0
KSM2 111125Z 00019KT 06/03 A3006 RMK A01 T00610026  RH  078%=      5-min Rain = 0
KSM2 111126Z 00021KT 06/03 A3006 RMK A01 T00610027  RH  078%=      5-min Rain = 0
KSM2 111127Z 36020G25KT 06/03 A3006 RMK A01 T00610027  RH  079%=      5-min Rain = 0
KSM2 111128Z 36018KT 06/03 A3006 RMK A01 T00620028  RH  079%=      5-min Rain = 0
KSM2 111129Z 36019G25KT 06/03 A3006 RMK A01 T00610028  RH  079%=      5-min Rain = 0
KSM2 111130Z 00023KT 06/03 A3006 RMK A01 T00610027  RH  079%=      5-min Rain = 0
KSM2 111131Z 36024G30KT 06/03 A3006 RMK A01 T00610027  RH  079%=      5-min Rain = 0
KSM2 111132Z 00019KT 06/03 A3006 RMK A01 T00620027  RH  078%=      5-min Rain = 0
KSM2 111133Z 36022G27KT 06/03 A3006 RMK A01 T00620027  RH  078%=      5-min Rain = 0
KSM2 111134Z 35024G29KT 06/03 A3006 RMK A01 T00620027  RH  078%=      5-min Rain = 0
KSM2 111135Z 36024KT 06/03 A3006 RMK A01 T00620027  RH  078%=      5-min Rain = 0
KSM2 111136Z 01019G26KT 06/03 A3007 RMK A01 T00620027  RH  078%=      5-min Rain = 0
KSM2 111137Z 00020KT 06/03 A3007 RMK A01 T00620027  RH  079%=      5-min Rain = 0
KSM2 111138Z 01024G29KT 06/03 A3007 RMK A01 T00620027  RH  079%=      5-min Rain = 0
KSM2 111139Z 01019G25KT 06/03 A3007 RMK A01 T00620027  RH  078%=      5-min Rain = 0
KSM2 111140Z 01020G26KT 06/03 A3007 RMK A01 T00620027  RH  079%=      5-min Rain = 0
KSM2 111141Z 00018KT 06/03 A3007 RMK A01 T00620028  RH  079%=      5-min Rain = 0
KSM2 111142Z 00021KT 06/03 A3007 RMK A01 T00620028  RH  079%=      5-min Rain = 0
KSM2 111143Z 00023G30KT 06/03 A3007 RMK A01 T00620027  RH  079%=      5-min Rain = 0
KSM2 111144Z 00024KT 06/03 A3007 RMK A01 T00620027  RH  078%=      5-min Rain = 0
KSM2 111145Z 00024G29KT 06/03 A3007 RMK A01 T00620027  RH  078%=      5-min Rain = 0
KSM2 111146Z 00023KT 06/03 A3007 RMK A01 T00620027  RH  078%=      5-min Rain = 0
KSM2 111147Z 00025KT 06/03 A3007 RMK A01 T00620026  RH  078%=      5-min Rain = 0
KSM2 111148Z 36023KT 06/03 A3007 RMK A01 T00610026  RH  078%=      5-min Rain = 0
KSM2 111149Z 35026KT 06/03 A3007 RMK A01 T00610026  RH  078%=      5-min Rain = 0
KSM2 111150Z 00024G30KT 06/03 A3007 RMK A01 T00600025  RH  078%=      5-min Rain = 0
KSM2 111151Z 36021KT 06/03 A3008 RMK A01 T00600026  RH  078%=      5-min Rain = 0
KSM2 111152Z 00022KT 06/03 A3008 RMK A01 T00600026  RH  079%=      5-min Rain = 0
KSM2 111153Z 01022KT 06/03 A3008 RMK A01 T00600026  RH  079%=      5-min Rain = 0
KSM2 111154Z 01018G25KT 06/03 A3008 RMK A01 T00590026  RH  079%=      5-min Rain = 0
KSM2 111155Z 01015KT 06/03 A3009 RMK A01 T00590026  RH  079%=      5-min Rain = 0
KSM2 111156Z 01020G26KT 06/03 A3009 RMK A01 T00590026  RH  079%=      5-min Rain = 0
KSM2 111157Z 01020KT 06/02 A3009 RMK A01 T00580023  RH  079%=      5-min Rain = 0
KSM2 111158Z 01020KT 06/02 A3009 RMK A01 T00560023  RH  079%=      5-min Rain = 0
KSM2 111159Z 01019G24KT 06/02 A3009 RMK A01 T00550023  RH  080%=      5-min Rain = 0
KSM2 111200Z 01025G31KT 06/02 A3009 RMK A01 T00550023  RH  080%=      5-min Rain = 0
KSM2 111201Z 01024G31KT 05/02 A3009 RMK A01 T00540022  RH  080%=      5-min Rain = 0
KSM2 111202Z 01021KT 05/02 A301 RMK A01 T00540022  RH  080%=      5-min Rain = 0
KSM2 111203Z 01023G28KT 05/02 A301 RMK A01 T00530022  RH  080%=      5-min Rain = 0
KSM2 111204Z 01024G29KT 05/02 A301 RMK A01 T00530021  RH  080%=      5-min Rain = 0
KSM2 111205Z 01019KT 05/02 A301 RMK A01 T00530022  RH  080%=      5-min Rain = 0
KSM2 111206Z 01021G26KT 05/02 A301 RMK A01 T00520021  RH  080%=      5-min Rain = 0
KSM2 111207Z 01017G22KT 05/02 A301 RMK A01 T00520021  RH  080%=      5-min Rain = 0
KSM2 111208Z 01022KT 05/02 A301 RMK A01 T00520021  RH  080%=      5-min Rain = 0
KSM2 111209Z 01018KT 05/02 A3011 RMK A01 T00520020  RH  080%=      5-min Rain = 0
KSM2 111210Z 01020KT 05/02 A3011 RMK A01 T00520020  RH  080%=      5-min Rain = 0
KSM2 111211Z 00023KT 05/02 A3011 RMK A01 T00520020  RH  080%=      5-min Rain = 0
KSM2 111212Z 00027G33KT 05/02 A3011 RMK A01 T00520020  RH  080%=      5-min Rain = 0
KSM2 111213Z 36027G32KT 05/02 A3011 RMK A01 T00510018  RH  079%=      5-min Rain = 0
KSM2 111214Z 00028G33KT 05/02 A3011 RMK A01 T00480016  RH  080%=      5-min Rain = 0
KSM2 111215Z 36030KT 05/01 A3011 RMK A01 T00450014  RH  080%=      5-min Rain = 0
KSM2 111216Z 36026G31KT 04/01 A3012 RMK A01 T00420014  RH  082%=      5-min Rain = 0
KSM2 111217Z 00028G33KT 04/01 A3012 RMK A01 T00400013  RH  082%=      5-min Rain = 0
KSM2 111218Z 36030G36KT 04/01 A3012 RMK A01 T00390012  RH  083%=      5-min Rain = 0
KSM2 111219Z 00023G30KT 04/01 A3012 RMK A01 T00380012  RH  083%=      5-min Rain = 0
KSM2 111220Z 00029KT 04/01 A3012 RMK A01 T00380012  RH  083%=      5-min Rain = 0
KSM2 111221Z 01027KT 04/01 A3012 RMK A01 T00370011  RH  083%=      5-min Rain = 0
KSM2 111222Z 00028G33KT 04/01 A3012 RMK A01 T00370011  RH  083%=      5-min Rain = 0
KSM2 111223Z 00027G33KT 04/01 A3012 RMK A01 T00360011  RH  084%=      5-min Rain = 0
KSM2 111224Z 00027G32KT 04/01 A3012 RMK A01 T00360011  RH  084%=      5-min Rain = 0
KSM2 111225Z 01026G31KT 04/01 A3012 RMK A01 T00350011  RH  084%=      5-min Rain = 0
KSM2 111226Z 01025G31KT 03/01 A3012 RMK A01 T00340011  RH  084%=      5-min Rain = 0
KSM2 111227Z 01022KT 03/01 A3012 RMK A01 T00340010  RH  085%=      5-min Rain = 0
KSM2 111228Z 01024KT 03/01 A3012 RMK A01 T00340010  RH  085%=      5-min Rain = 0
KSM2 111229Z 01024KT 03/01 A3012 RMK A01 T00340010  RH  085%=      5-min Rain = 0
KSM2 111230Z 01021G27KT 03/01 A3013 RMK A01 T00340010  RH  085%=      5-min Rain = 0
KSM2 111231Z 01021G28KT 03/01 A3013 RMK A01 T00340010  RH  085%=      5-min Rain = 0
KSM2 111232Z 01026KT 03/01 A3012 RMK A01 T00340010  RH  084%=      5-min Rain = 0
KSM2 111233Z 01022G30KT 03/01 A3013 RMK A01 T00330009  RH  084%=      5-min Rain = 0
KSM2 111234Z 00024KT 03/01 A3013 RMK A01 T00340010  RH  084%=      5-min Rain = 0
KSM2 111235Z 01026G34KT 03/01 A3013 RMK A01 T00330009  RH  084%=      5-min Rain = 0
KSM2 111236Z 36029G34KT 03/01 A3013 RMK A01 T00320007  RH  084%=      5-min Rain = 0
KSM2 111237Z 36025G32KT 03/01 A3013 RMK A01 T00310007  RH  084%=      5-min Rain = 0
KSM2 111238Z 00027G35KT 03/01 A3013 RMK A01 T00310007  RH  084%=      5-min Rain = 0
KSM2 111239Z 00028G33KT 03/01 A3013 RMK A01 T00290005  RH  084%=      5-min Rain = 0
KSM2 111240Z 00028G33KT 03/00 A3013 RMK A01 T00280004  RH  084%=      5-min Rain = 0
KSM2 111241Z 00027G32KT 03/00 A3014 RMK A01 T00270002  RH  084%=      5-min Rain = 0
KSM2 111242Z 00023G29KT 03/00 A3014 RMK A01 T00260000  RH  083%=      5-min Rain = 0
KSM2 111243Z 00026G31KT 03/M00 A3014 RMK A01 T00261001  RH  083%=      5-min Rain = 0
KSM2 111244Z 00029G37KT 02/M00 A3014 RMK A01 T00241003  RH  082%=      5-min Rain = 0
KSM2 111245Z 00027G33KT 02/M00 A3015 RMK A01 T00231004  RH  082%=      5-min Rain = 0
KSM2 111246Z 00028G33KT 02/M01 A3015 RMK A01 T00221005  RH  083%=      5-min Rain = 0
KSM2 111247Z 00029KT 02/M01 A3015 RMK A01 T00201006  RH  083%=      5-min Rain = 0
KSM2 111248Z 00026G33KT 02/M01 A3015 RMK A01 T00191007  RH  083%=      5-min Rain = 0
KSM2 111249Z 00026G32KT 02/M01 A3015 RMK A01 T00191006  RH  083%=      5-min Rain = 0
KSM2 111250Z 36023KT 02/M01 A3015 RMK A01 T00181006  RH  084%=      5-min Rain = 0
KSM2 111251Z 00028G34KT 02/M01 A3015 RMK A01 T00191006  RH  084%=      5-min Rain = 0
KSM2 111252Z 00026G31KT 02/M01 A3015 RMK A01 T00191006  RH  084%=      5-min Rain = 0
KSM2 111253Z 00026KT 02/M01 A3016 RMK A01 T00181007  RH  084%=      5-min Rain = 0
KSM2 111254Z 00021KT 02/M01 A3016 RMK A01 T00181007  RH  084%=      5-min Rain = 0
KSM2 111255Z 36025G30KT 02/M01 A3016 RMK A01 T00181006  RH  084%=      5-min Rain = 0
KSM2 111256Z 00025KT 02/M01 A3016 RMK A01 T00181007  RH  084%=      5-min Rain = 0
KSM2 111257Z 36022G27KT 02/M01 A3016 RMK A01 T00171006  RH  084%=      5-min Rain = 0
KSM2 111258Z 36024KT 02/M01 A3016 RMK A01 T00181006  RH  084%=      5-min Rain = 0
KSM2 111259Z 00027KT 02/M01 A3016 RMK A01 T00181007  RH  084%=      5-min Rain = 0
KSM2 111300Z 00026G31KT 02/M01 A3016 RMK A01 T00181007  RH  084%=      5-min Rain = 0
KSM2 111301Z 00027G33KT 02/M01 A3016 RMK A01 T00171007  RH  084%=      5-min Rain = 0
KSM2 111302Z 36027G35KT 02/M01 A3016 RMK A01 T00171006  RH  084%=      5-min Rain = 0
KSM2 111303Z 00029G35KT 02/M01 A3016 RMK A01 T00171007  RH  084%=      5-min Rain = 0
KSM2 111304Z 00028G34KT 02/M01 A3016 RMK A01 T00171007  RH  084%=      5-min Rain = 0
KSM2 111305Z 01023KT 02/M01 A3017 RMK A01 T00161007  RH  084%=      5-min Rain = 0
KSM2 111306Z 01023KT 02/M01 A3017 RMK A01 T00161008  RH  084%=      5-min Rain = 0
KSM2 111307Z 01025G31KT 02/M01 A3017 RMK A01 T00161008  RH  084%=      5-min Rain = 0
KSM2 111308Z 00028G34KT 02/M01 A3017 RMK A01 T00151009  RH  084%=      5-min Rain = 0
KSM2 111309Z 35026G32KT 01/M01 A3017 RMK A01 T00141011  RH  084%=      5-min Rain = 0
KSM2 111310Z 35024KT 01/M01 A3018 RMK A01 T00131011  RH  084%=      5-min Rain = 0
KSM2 111311Z 35025KT 01/M01 A3018 RMK A01 T00131012  RH  083%=      5-min Rain = 0
KSM2 111312Z 36025KT 01/M01 A3018 RMK A01 T00131013  RH  083%=      5-min Rain = 0
KSM2 111313Z 35029G34KT 01/M02 A3018 RMK A01 T00121015  RH  082%=      5-min Rain = 0
KSM2 111314Z 36025G31KT 01/M02 A3018 RMK A01 T00111017  RH  082%=      5-min Rain = 0
KSM2 111315Z 36027G32KT 01/M02 A3018 RMK A01 T00101018  RH  082%=      5-min Rain = 0
KSM2 111316Z 36029G34KT 01/M02 A3019 RMK A01 T00101017  RH  082%=      5-min Rain = 0
KSM2 111317Z 36032KT 01/M02 A3018 RMK A01 T00091018  RH  082%=      5-min Rain = 0
KSM2 111318Z 00029G36KT 01/M02 A3018 RMK A01 T00081020  RH  081%=      5-min Rain = 0
KSM2 111319Z 00028G33KT 01/M02 A3018 RMK A01 T00071022  RH  081%=      5-min Rain = 0
KSM2 111320Z 01028G34KT 01/M02 A3019 RMK A01 T00061023  RH  081%=      5-min Rain = 0
KSM2 111321Z 00029KT 01/M02 A3019 RMK A01 T00061024  RH  080%=      5-min Rain = 0
KSM2 111322Z 00028KT 01/M03 A3019 RMK A01 T00051025  RH  080%=      5-min Rain = 0
KSM2 111323Z 01027G33KT 00/M03 A3019 RMK A01 T00041025  RH  081%=      5-min Rain = 0
KSM2 111324Z 01025G31KT 00/M03 A3019 RMK A01 T00041025  RH  081%=      5-min Rain = 0
KSM2 111325Z 01026G33KT 00/M03 A3019 RMK A01 T00031026  RH  080%=      5-min Rain = 0
KSM2 111326Z 01029G37KT 00/M03 A3019 RMK A01 T00031027  RH  080%=      5-min Rain = 0
KSM2 111327Z 01026G32KT 00/M03 A3019 RMK A01 T00031028  RH  080%=      5-min Rain = 0
KSM2 111328Z 01023G29KT 00/M03 A302 RMK A01 T00031027  RH  080%=      5-min Rain = 0
KSM2 111329Z 01025G30KT 00/M03 A302 RMK A01 T00031026  RH  081%=      5-min Rain = 0
KSM2 111330Z 00027KT 00/M03 A302 RMK A01 T00031027  RH  081%=      5-min Rain = 0
KSM2 111331Z 00030G37KT 00/M03 A3019 RMK A01 T00031026  RH  081%=      5-min Rain = 0
KSM2 111332Z 00032KT 00/M03 A3019 RMK A01 T00031026  RH  081%=      5-min Rain = 0
KSM2 111333Z 00031KT 00/M03 A302 RMK A01 T00021026  RH  082%=      5-min Rain = 0
KSM2 111334Z 00028G35KT 00/M03 A302 RMK A01 T00021025  RH  082%=      5-min Rain = 0
KSM2 111335Z 00028G33KT 00/M03 A302 RMK A01 T00021026  RH  082%=      5-min Rain = 0
KSM2 111336Z 00028KT 00/M03 A302 RMK A01 T00021025  RH  082%=      5-min Rain = 0
KSM2 111337Z 00025G31KT 00/M03 A3021 RMK A01 T00021025  RH  082%=      5-min Rain = 0
KSM2 111338Z 01024G32KT 00/M03 A3021 RMK A01 T00021026  RH  082%=      5-min Rain = 0
KSM2 111339Z 01023G30KT 00/M03 A3021 RMK A01 T00021026  RH  081%=      5-min Rain = 0
KSM2 111340Z 01023G29KT 00/M03 A3021 RMK A01 T00021026  RH  081%=      5-min Rain = 0
KSM2 111341Z 01022KT 00/M03 A3021 RMK A01 T00021027  RH  081%=      5-min Rain = 0
KSM2 111342Z 01025G31KT 00/M03 A3021 RMK A01 T00021027  RH  081%=      5-min Rain = 0
KSM2 111343Z 00030KT 00/M03 A3021 RMK A01 T00021028  RH  080%=      5-min Rain = 0
KSM2 111344Z 00029KT 00/M03 A3021 RMK A01 T00011029  RH  081%=      5-min Rain = 0
KSM2 111345Z 00031KT 00/03 A3021 RMK A01 T00000-29  RH  081%=      5-min Rain = 0
KSM2 111346Z 00028G36KT M00/M03 A3022 RMK A01 T10011029  RH  081%=      5-min Rain = 0
KSM2 111347Z 00027KT M00/M03 A3021 RMK A01 T10011029  RH  081%=      5-min Rain = 0
KSM2 111348Z 00027G32KT M00/M03 A3021 RMK A01 T10011029  RH  082%=      5-min Rain = 0
KSM2 111349Z 36025G31KT M00/M03 A3022 RMK A01 T10011029  RH  082%=      5-min Rain = 0
KSM2 111350Z 00023G29KT M00/M03 A3022 RMK A01 T10011028  RH  082%=      5-min Rain = 0
KSM2 111351Z 00030G37KT M00/M03 A3021 RMK A01 T10011028  RH  082%=      5-min Rain = 0
KSM2 111352Z 36031G36KT M00/M03 A3021 RMK A01 T10021029  RH  082%=      5-min Rain = 0
KSM2 111353Z 00025G30KT M00/M03 A3022 RMK A01 T10021029  RH  082%=      5-min Rain = 0
KSM2 111354Z 00023G28KT M00/M03 A3022 RMK A01 T10021029  RH  082%=      5-min Rain = 0
KSM2 111355Z 00024G32KT M00/M03 A3022 RMK A01 T10021028  RH  082%=      5-min Rain = 0
KSM2 111356Z 00026G33KT M00/M03 A3022 RMK A01 T10021028  RH  082%=      5-min Rain = 0
KSM2 111357Z 00028KT M00/M03 A3022 RMK A01 T10011028  RH  082%=      5-min Rain = 0
KSM2 111358Z 01027G33KT M00/M03 A3022 RMK A01 T10011028  RH  082%=      5-min Rain = 0
KSM2 111359Z 01027G33KT M00/M03 A3022 RMK A01 T10011028  RH  082%=      5-min Rain = 0
KSM2 111400Z 01029G36KT M00/M03 A3022 RMK A01 T10011029  RH  082%=      5-min Rain = 0
KSM2 111401Z 01025G32KT M00/M03 A3022 RMK A01 T10021029  RH  082%=      5-min Rain = 0
KSM2 111402Z 01024G30KT M00/M03 A3022 RMK A01 T10011028  RH  082%=      5-min Rain = 0
KSM2 111403Z 01022G28KT M00/M03 A3022 RMK A01 T10021029  RH  082%=      5-min Rain = 0
KSM2 111404Z 01023G29KT M00/M03 A3022 RMK A01 T10011028  RH  082%=      5-min Rain = 0
KSM2 111405Z 01026G32KT M00/M03 A3022 RMK A01 T10011028  RH  082%=      5-min Rain = 0
KSM2 111406Z 01025G30KT M00/M03 A3022 RMK A01 T10011028  RH  082%=      5-min Rain = 0
KSM2 111407Z 01032KT M00/M03 A3022 RMK A01 T10011028  RH  082%=      5-min Rain = 0
KSM2 111408Z 00029KT M00/M03 A3022 RMK A01 T10021029  RH  082%=      5-min Rain = 0
KSM2 111409Z 01028KT M00/M03 A3022 RMK A01 T10021029  RH  082%=      5-min Rain = 0
KSM2 111410Z 01030G35KT M00/M03 A3022 RMK A01 T10021029  RH  083%=      5-min Rain = 0
KSM2 111411Z 00031KT M00/M03 A3022 RMK A01 T10021029  RH  083%=      5-min Rain = 0
KSM2 111412Z 00029G36KT M00/M03 A3022 RMK A01 T10031029  RH  083%=      5-min Rain = 0
KSM2 111413Z 01029G36KT M00/M03 A3022 RMK A01 T10021028  RH  083%=      5-min Rain = 0
KSM2 111414Z 01030G39KT M00/M03 A3023 RMK A01 T10021028  RH  083%=      5-min Rain = 0
KSM2 111415Z 01026G32KT M00/M03 A3023 RMK A01 T10021028  RH  083%=      5-min Rain = 0
KSM2 111416Z 01025G31KT M00/M03 A3023 RMK A01 T10021028  RH  083%=      5-min Rain = 0
KSM2 111417Z 01024G30KT M00/M03 A3023 RMK A01 T10021028  RH  083%=      5-min Rain = 0
KSM2 111418Z 01023KT M00/M03 A3024 RMK A01 T10021027  RH  083%=      5-min Rain = 0
KSM2 111419Z 00025G32KT M00/M03 A3024 RMK A01 T10021027  RH  084%=      5-min Rain = 0
KSM2 111420Z 01024G30KT M00/M03 A3024 RMK A01 T10021027  RH  083%=      5-min Rain = 0
KSM2 111421Z 01026G31KT M00/M03 A3024 RMK A01 T10021027  RH  083%=      5-min Rain = 0
KSM2 111422Z 01026G33KT M00/M03 A3024 RMK A01 T10031027  RH  084%=      5-min Rain = 0
KSM2 111423Z 00028G33KT M00/M03 A3024 RMK A01 T10021027  RH  084%=      5-min Rain = 0
KSM2 111424Z 00026G32KT M00/M03 A3024 RMK A01 T10021026  RH  084%=      5-min Rain = 0
KSM2 111425Z 00026KT M00/M03 A3024 RMK A01 T10021026  RH  084%=      5-min Rain = 0
KSM2 111426Z 01025G33KT M00/M03 A3024 RMK A01 T10031026  RH  084%=      5-min Rain = 0
KSM2 111427Z 01024G32KT M00/M03 A3025 RMK A01 T10021026  RH  084%=      5-min Rain = 0
KSM2 111428Z 01022G30KT M00/M03 A3024 RMK A01 T10021026  RH  084%=      5-min Rain = 0
KSM2 111429Z 01019KT M00/M03 A3025 RMK A01 T10031026  RH  084%=      5-min Rain = 0
KSM2 111430Z 01024G31KT M00/M03 A3025 RMK A01 T10031026  RH  084%=      5-min Rain = 0
KSM2 111431Z 00028KT M00/M03 A3025 RMK A01 T10031027  RH  084%=      5-min Rain = 0
KSM2 111432Z 00030G36KT M00/M03 A3025 RMK A01 T10041028  RH  084%=      5-min Rain = 0
KSM2 111433Z 01024G29KT M00/M03 A3025 RMK A01 T10041028  RH  084%=      5-min Rain = 0
KSM2 111434Z 01020KT M00/M03 A3026 RMK A01 T10041028  RH  084%=      5-min Rain = 0
KSM2 111435Z 00026G32KT M00/M03 A3025 RMK A01 T10041028  RH  084%=      5-min Rain = 0
KSM2 111436Z 01020G25KT M00/M03 A3026 RMK A01 T10041028  RH  084%=      5-min Rain = 0
KSM2 111437Z 00022G27KT M00/M03 A3026 RMK A01 T10041028  RH  084%=      5-min Rain = 0
KSM2 111438Z 01024G30KT M00/M03 A3026 RMK A01 T10041029  RH  084%=      5-min Rain = 0
KSM2 111439Z 01026G32KT M01/M03 A3026 RMK A01 T10051029  RH  083%=      5-min Rain = 0
KSM2 111440Z 00024G30KT M01/M03 A3026 RMK A01 T10061031  RH  083%=      5-min Rain = 0
KSM2 111441Z 00025KT M01/M03 A3027 RMK A01 T10071032  RH  084%=      5-min Rain = 0
KSM2 111442Z 36028KT M01/M03 A3027 RMK A01 T10081032  RH  084%=      5-min Rain = 0
KSM2 111443Z 36030G35KT M01/M03 A3027 RMK A01 T10081033  RH  084%=      5-min Rain = 0
KSM2 111444Z 00031KT M01/M03 A3027 RMK A01 T10101034  RH  084%=      5-min Rain = 0
KSM2 111445Z 36029G34KT M01/M03 A3027 RMK A01 T10111034  RH  084%=      5-min Rain = 0
KSM2 111446Z 36029KT M01/M04 A3027 RMK A01 T10111035  RH  084%=      5-min Rain = 0
KSM2 111447Z 00026G33KT M01/M04 A3028 RMK A01 T10111035  RH  084%=      5-min Rain = 0
KSM2 111448Z 00030G37KT M01/M04 A3027 RMK A01 T10111035  RH  084%=      5-min Rain = 0
KSM2 111449Z 01027G35KT M01/M04 A3028 RMK A01 T10111036  RH  083%=      5-min Rain = 0
KSM2 111450Z 01029KT M01/M04 A3028 RMK A01 T10111036  RH  083%=      5-min Rain = 0
KSM2 111451Z 01029KT M01/M04 A3028 RMK A01 T10121038  RH  083%=      5-min Rain = 0
KSM2 111452Z 01025KT M01/M04 A3028 RMK A01 T10131038  RH  083%=      5-min Rain = 0
KSM2 111453Z 01024G30KT M01/M04 A3028 RMK A01 T10121039  RH  082%=      5-min Rain = 0
KSM2 111454Z 01027G35KT M01/M04 A3028 RMK A01 T10131039  RH  082%=      5-min Rain = 0
KSM2 111455Z 01028G34KT M01/M04 A3028 RMK A01 T10121039  RH  082%=      5-min Rain = 0
KSM2 111456Z 01029G34KT M01/M04 A3028 RMK A01 T10131040  RH  082%=      5-min Rain = 0
KSM2 111457Z 01028G34KT M01/M04 A3029 RMK A01 T10131040  RH  082%=      5-min Rain = 0
KSM2 111458Z 01027G33KT M01/M04 A3029 RMK A01 T10131040  RH  082%=      5-min Rain = 0
KSM2 111459Z 01024KT M01/M04 A3029 RMK A01 T10131040  RH  082%=      5-min Rain = 0
KSM2 111500Z 01026G32KT M01/M04 A3029 RMK A01 T10131040  RH  082%=      5-min Rain = 0
KSM2 111501Z 01026G31KT M01/M04 A3029 RMK A01 T10131041  RH  082%=      5-min Rain = 0
KSM2 111502Z 01023G31KT M01/M04 A3029 RMK A01 T10141041  RH  082%=      5-min Rain = 0
KSM2 111503Z 01021G29KT M01/M04 A3029 RMK A01 T10141040  RH  082%=      5-min Rain = 0
KSM2 111504Z 01024KT M01/M04 A3029 RMK A01 T10141040  RH  083%=      5-min Rain = 0
KSM2 111505Z 00025G33KT M01/M04 A3029 RMK A01 T10141040  RH  082%=      5-min Rain = 0
KSM2 111506Z 00027G33KT M01/M04 A303 RMK A01 T10141040  RH  083%=      5-min Rain = 0
KSM2 111507Z 00032G40KT M02/M04 A3029 RMK A01 T10151041  RH  082%=      5-min Rain = 0
KSM2 111508Z 01028KT M02/M04 A303 RMK A01 T10151041  RH  082%=      5-min Rain = 0
KSM2 111509Z 01029G37KT M02/M04 A303 RMK A01 T10161042  RH  082%=      5-min Rain = 0
KSM2 111510Z 01033G38KT M02/M04 A303 RMK A01 T10161042  RH  083%=      5-min Rain = 0
KSM2 111511Z 01027G35KT M02/M04 A303 RMK A01 T10171042  RH  083%=      5-min Rain = 0
KSM2 111512Z 01026KT M02/M04 A303 RMK A01 T10171042  RH  083%=      5-min Rain = 0
KSM2 111513Z 01025G31KT M02/M04 A303 RMK A01 T10171042  RH  083%=      5-min Rain = 0
KSM2 111514Z 01025G30KT M02/M04 A303 RMK A01 T10171042  RH  083%=      5-min Rain = 0
KSM2 111515Z 01025G31KT M02/M04 A303 RMK A01 T10171042  RH  083%=      5-min Rain = 0
KSM2 111516Z 01024G29KT M02/M04 A303 RMK A01 T10171042  RH  083%=      5-min Rain = 0
KSM2 111517Z 01023KT M02/M04 A303 RMK A01 T10161041  RH  083%=      5-min Rain = 0
KSM2 111518Z 01023G32KT M02/M04 A3031 RMK A01 T10161042  RH  083%=      5-min Rain = 0
KSM2 111519Z 01028G34KT M02/M04 A3031 RMK A01 T10161042  RH  083%=      5-min Rain = 0
KSM2 111520Z 00031KT M02/M04 A3031 RMK A01 T10171043  RH  082%=      5-min Rain = 0
KSM2 111521Z 00029KT M02/M05 A3031 RMK A01 T10191045  RH  082%=      5-min Rain = 0
KSM2 111522Z 01024G30KT M02/M05 A3031 RMK A01 T10201045  RH  083%=      5-min Rain = 0
KSM2 111523Z 01023G29KT M02/M04 A3032 RMK A01 T10201044  RH  084%=      5-min Rain = 0
KSM2 111524Z 01025G32KT M02/M04 A3032 RMK A01 T10201044  RH  084%=      5-min Rain = 0
KSM2 111525Z 01029KT M02/M04 A3031 RMK A01 T10201044  RH  084%=      5-min Rain = 0
KSM2 111526Z 01027G33KT M02/M05 A3032 RMK A01 T10211045  RH  083%=      5-min Rain = 0
KSM2 111527Z 01030G37KT M02/M05 A3032 RMK A01 T10211045  RH  084%=      5-min Rain = 0
KSM2 111528Z 01029G35KT M02/M05 A3032 RMK A01 T10211045  RH  084%=      5-min Rain = 0
KSM2 111529Z 01030G36KT M02/M05 A3032 RMK A01 T10211045  RH  084%=      5-min Rain = 0
KSM2 111530Z 01031G40KT M02/M05 A3032 RMK A01 T10211046  RH  083%=      5-min Rain = 0
KSM2 111531Z 01027G32KT M02/M05 A3032 RMK A01 T10211046  RH  083%=      5-min Rain = 0
KSM2 111532Z 01028G35KT M02/M05 A3033 RMK A01 T10211046  RH  083%=      5-min Rain = 0
KSM2 111533Z 01029G35KT M02/M05 A3033 RMK A01 T10211046  RH  083%=      5-min Rain = 0
KSM2 111534Z 01027G32KT M02/M05 A3033 RMK A01 T10211046  RH  083%=      5-min Rain = 0
KSM2 111535Z 01028KT M02/M05 A3033 RMK A01 T10211046  RH  083%=      5-min Rain = 0
KSM2 111536Z 01028G33KT M02/M05 A3033 RMK A01 T10211046  RH  083%=      5-min Rain = 0
KSM2 111537Z 01021G26KT M02/M05 A3033 RMK A01 T10211046  RH  083%=      5-min Rain = 0
KSM2 111538Z 01027G34KT M02/M05 A3033 RMK A01 T10201045  RH  083%=      5-min Rain = 0
KSM2 111539Z 00024G29KT M02/M05 A3033 RMK A01 T10201046  RH  083%=      5-min Rain = 0
KSM2 111540Z 00023G30KT M02/M05 A3034 RMK A01 T10201045  RH  083%=      5-min Rain = 0
KSM2 111541Z 01025G32KT M02/M05 A3034 RMK A01 T10201045  RH  083%=      5-min Rain = 0
KSM2 111542Z 01024G29KT M02/M05 A3034 RMK A01 T10201045  RH  083%=      5-min Rain = 0
KSM2 111543Z 01024KT M02/M05 A3034 RMK A01 T10211046  RH  083%=      5-min Rain = 0
KSM2 111544Z 01028G34KT M02/M05 A3034 RMK A01 T10211046  RH  083%=      5-min Rain = 0
KSM2 111545Z 01028G33KT M02/M05 A3034 RMK A01 T10211049  RH  081%=      5-min Rain = 0
KSM2 111546Z 02025KT M02/M05 A3034 RMK A01 T10221052  RH  080%=      5-min Rain = 0
KSM2 111547Z 01023KT M02/M05 A3034 RMK A01 T10231053  RH  080%=      5-min Rain = 0
KSM2 111548Z 00027G35KT M02/M05 A3035 RMK A01 T10231053  RH  080%=      5-min Rain = 0
KSM2 111549Z 01029KT M02/M06 A3034 RMK A01 T10241055  RH  079%=      5-min Rain = 0
KSM2 111550Z 00032KT M03/M06 A3034 RMK A01 T10251056  RH  080%=      5-min Rain = 0
KSM2 111551Z 35030G35KT M03/M06 A3035 RMK A01 T10261056  RH  080%=      5-min Rain = 0
KSM2 111552Z 00028G40KT M03/M06 A3035 RMK A01 T10271056  RH  081%=      5-min Rain = 0
KSM2 111553Z 01032G37KT M03/M06 A3035 RMK A01 T10281056  RH  081%=      5-min Rain = 0
KSM2 111554Z 00032KT M03/M06 A3035 RMK A01 T10281057  RH  081%=      5-min Rain = 0
KSM2 111555Z 00030G35KT M03/M06 A3035 RMK A01 T10291057  RH  081%=      5-min Rain = 0
KSM2 111556Z 00028G35KT M03/M06 A3035 RMK A01 T10291057  RH  081%=      5-min Rain = 0
KSM2 111557Z 01028G34KT M03/M06 A3035 RMK A01 T10291056  RH  081%=      5-min Rain = 0
KSM2 111558Z 01026G33KT M03/M06 A3035 RMK A01 T10281057  RH  081%=      5-min Rain = 0
KSM2 111559Z 01024G32KT M03/M06 A3036 RMK A01 T10281056  RH  081%=      5-min Rain = 0
KSM2 111600Z 01025G31KT M03/M06 A3036 RMK A01 T10271056  RH  080%=      5-min Rain = 0
KSM2 111601Z 02024G32KT M03/M06 A3036 RMK A01 T10271057  RH  080%=      5-min Rain = 0
KSM2 111602Z 01028G34KT M03/M06 A3036 RMK A01 T10271057  RH  080%=      5-min Rain = 0
KSM2 111603Z 01026G32KT M03/M06 A3036 RMK A01 T10271057  RH  080%=      5-min Rain = 0
KSM2 111604Z 01025KT M03/M06 A3036 RMK A01 T10271058  RH  080%=      5-min Rain = 0
KSM2 111605Z 01024G29KT M03/M06 A3036 RMK A01 T10271057  RH  080%=      5-min Rain = 0
KSM2 111606Z 01025G30KT M03/M06 A3036 RMK A01 T10271057  RH  080%=      5-min Rain = 0
KSM2 111607Z 01028KT M03/M06 A3036 RMK A01 T10271058  RH  079%=      5-min Rain = 0
KSM2 111608Z 01022G28KT M03/M06 A3036 RMK A01 T10281058  RH  080%=      5-min Rain = 0
KSM2 111609Z 01022G28KT M03/M06 A3036 RMK A01 T10271057  RH  080%=      5-min Rain = 0
KSM2 111610Z 01024G30KT M03/M06 A3036 RMK A01 T10271057  RH  080%=      5-min Rain = 0
KSM2 111611Z 01021G26KT M03/M06 A3036 RMK A01 T10261057  RH  080%=      5-min Rain = 0
KSM2 111612Z 01026G33KT M03/M06 A3036 RMK A01 T10261056  RH  080%=      5-min Rain = 0
KSM2 111613Z 01025KT M03/M06 A3036 RMK A01 T10261057  RH  079%=      5-min Rain = 0
KSM2 111614Z 01026G33KT M03/M06 A3036 RMK A01 T10271058  RH  079%=      5-min Rain = 0
KSM2 111615Z 01025G33KT M03/M06 A3036 RMK A01 T10271059  RH  079%=      5-min Rain = 0
KSM2 111616Z 01024G29KT M03/M06 A3036 RMK A01 T10271059  RH  079%=      5-min Rain = 0
KSM2 111617Z 00026G32KT M03/M06 A3036 RMK A01 T10271059  RH  079%=      5-min Rain = 0
KSM2 111618Z 36027G35KT M03/M06 A3036 RMK A01 T10281059  RH  079%=      5-min Rain = 0
KSM2 111619Z 00027KT M03/M06 A3037 RMK A01 T10281059  RH  080%=      5-min Rain = 0
KSM2 111620Z 00025KT M03/M06 A3037 RMK A01 T10291059  RH  080%=      5-min Rain = 0
KSM2 111621Z 01028KT M03/M06 A3037 RMK A01 T10291059  RH  080%=      5-min Rain = 0
KSM2 111622Z 00029KT M03/M06 A3037 RMK A01 T10301060  RH  080%=      5-min Rain = 0
KSM2 111623Z 01026KT M03/M06 A3037 RMK A01 T10301060  RH  080%=      5-min Rain = 0
KSM2 111624Z 00023KT M03/M06 A3037 RMK A01 T10301059  RH  080%=      5-min Rain = 0
KSM2 111625Z 01020G27KT M03/M06 A3037 RMK A01 T10301059  RH  080%=      5-min Rain = 0
KSM2 111626Z 01025KT M03/M06 A3037 RMK A01 T10291059  RH  080%=      5-min Rain = 0
KSM2 111627Z 01025G35KT M03/M06 A3037 RMK A01 T10291060  RH  079%=      5-min Rain = 0
KSM2 111628Z 01028G34KT M03/M06 A3037 RMK A01 T10301062  RH  079%=      5-min Rain = 0
KSM2 111629Z 00031KT M03/M06 A3037 RMK A01 T10311063  RH  079%=      5-min Rain = 0
KSM2 111630Z 01029KT M03/M06 A3037 RMK A01 T10321063  RH  079%=      5-min Rain = 0
KSM2 111631Z 01028G34KT M03/M06 A3037 RMK A01 T10321063  RH  079%=      5-min Rain = 0
KSM2 111632Z 01030G36KT M03/M06 A3037 RMK A01 T10321063  RH  079%=      5-min Rain = 0
KSM2 111633Z 36032G38KT M03/M06 A3037 RMK A01 T10321063  RH  079%=      5-min Rain = 0
KSM2 111634Z 01027G35KT M03/M06 A3037 RMK A01 T10321063  RH  079%=      5-min Rain = 0
KSM2 111635Z 01027G33KT M03/M06 A3038 RMK A01 T10311063  RH  079%=      5-min Rain = 0
KSM2 111636Z 01024G32KT M03/M06 A3038 RMK A01 T10311062  RH  079%=      5-min Rain = 0
KSM2 111637Z 01023G28KT M03/M06 A3038 RMK A01 T10301062  RH  079%=      5-min Rain = 0
KSM2 111638Z 01022KT M03/M06 A3038 RMK A01 T10301062  RH  079%=      5-min Rain = 0
KSM2 111639Z 01022G29KT M03/M06 A3038 RMK A01 T10291061  RH  079%=      5-min Rain = 0
KSM2 111640Z 01025KT M03/M06 A3038 RMK A01 T10291062  RH  078%=      5-min Rain = 0
KSM2 111641Z 01024G32KT M03/M06 A3038 RMK A01 T10301063  RH  078%=      5-min Rain = 0
KSM2 111642Z 00023G30KT M03/M06 A3038 RMK A01 T10301063  RH  078%=      5-min Rain = 0
KSM2 111643Z 01025KT M03/M06 A3038 RMK A01 T10301063  RH  078%=      5-min Rain = 0
KSM2 111644Z 00025KT M03/M06 A3038 RMK A01 T10301064  RH  078%=      5-min Rain = 0
KSM2 111645Z 01024KT M03/M06 A3038 RMK A01 T10311064  RH  078%=      5-min Rain = 0
KSM2 111646Z 01022G27KT M03/M06 A3038 RMK A01 T10311064  RH  078%=      5-min Rain = 0
KSM2 111647Z 00021G26KT M03/M06 A3039 RMK A01 T10301063  RH  078%=      5-min Rain = 0
KSM2 111648Z 01021G29KT M03/M06 A3039 RMK A01 T10301063  RH  078%=      5-min Rain = 0
KSM2 111649Z 01022G29KT M03/M06 A3038 RMK A01 T10291063  RH  078%=      5-min Rain = 0
KSM2 111650Z 01022G30KT M03/M06 A3038 RMK A01 T10301063  RH  078%=      5-min Rain = 0
KSM2 111651Z 00026G35KT M03/M06 A3038 RMK A01 T10291063  RH  078%=      5-min Rain = 0
KSM2 111652Z 01029G35KT M03/M06 A3038 RMK A01 T10291064  RH  077%=      5-min Rain = 0
KSM2 111653Z 01029KT M03/M06 A3039 RMK A01 T10291064  RH  077%=      5-min Rain = 0
KSM2 111654Z 01023KT M03/M06 A3039 RMK A01 T10301064  RH  077%=      5-min Rain = 0
KSM2 111655Z 01024KT M03/M06 A3039 RMK A01 T10291064  RH  077%=      5-min Rain = 0
KSM2 111656Z 01022KT M03/M06 A3039 RMK A01 T10291064  RH  077%=      5-min Rain = 0
KSM2 111657Z 01022G28KT M03/M06 A3039 RMK A01 T10291063  RH  077%=      5-min Rain = 0
KSM2 111658Z 00024G29KT M03/M06 A3039 RMK A01 T10281063  RH  077%=      5-min Rain = 0
KSM2 111659Z 01020KT M03/M06 A3039 RMK A01 T10281063  RH  077%=      5-min Rain = 0
KSM2 111700Z 00022G28KT M03/M06 A3039 RMK A01 T10271063  RH  077%=      5-min Rain = 0
KSM2 111701Z 01023G28KT M03/M06 A3039 RMK A01 T10271062  RH  077%=      5-min Rain = 0
KSM2 111702Z 01021G27KT M03/M06 A3039 RMK A01 T10271063  RH  076%=      5-min Rain = 0
KSM2 111703Z 00021KT M03/M06 A3039 RMK A01 T10271063  RH  076%=      5-min Rain = 0
KSM2 111704Z 00025G31KT M03/M06 A3039 RMK A01 T10271063  RH  076%=      5-min Rain = 0
KSM2 111705Z 01021KT M03/M06 A304 RMK A01 T10271064  RH  076%=      5-min Rain = 0
KSM2 111706Z 00021KT M03/M06 A304 RMK A01 T10271063  RH  076%=      5-min Rain = 0
KSM2 111707Z 01024G29KT M03/M06 A304 RMK A01 T10271063  RH  076%=      5-min Rain = 0
KSM2 111708Z 01022G28KT M03/M06 A304 RMK A01 T10261063  RH  076%=      5-min Rain = 0
KSM2 111709Z 01022KT M03/M06 A304 RMK A01 T10261063  RH  076%=      5-min Rain = 0
KSM2 111710Z 00023KT M03/M06 A304 RMK A01 T10261063  RH  076%=      5-min Rain = 0
KSM2 111711Z 01023KT M03/M06 A304 RMK A01 T10261063  RH  076%=      5-min Rain = 0
KSM2 111712Z 01020KT M03/M06 A304 RMK A01 T10261064  RH  075%=      5-min Rain = 0
KSM2 111713Z 01017G25KT M03/M06 A304 RMK A01 T10261062  RH  076%=      5-min Rain = 0
KSM2 111714Z 01022KT M02/M06 A304 RMK A01 T10241061  RH  076%=      5-min Rain = 0
KSM2 111715Z 01021G26KT M02/M06 A304 RMK A01 T10241062  RH  075%=      5-min Rain = 0
KSM2 111716Z 01022KT M03/M06 A304 RMK A01 T10251063  RH  075%=      5-min Rain = 0
KSM2 111717Z 01021KT M03/M06 A304 RMK A01 T10251063  RH  075%=      5-min Rain = 0
KSM2 111718Z 01021G28KT M03/M06 A3039 RMK A01 T10251063  RH  075%=      5-min Rain = 0
KSM2 111719Z 00024KT M03/M06 A3039 RMK A01 T10251064  RH  075%=      5-min Rain = 0
KSM2 111720Z 00022G27KT M03/M06 A3039 RMK A01 T10251064  RH  075%=      5-min Rain = 0
KSM2 111721Z 01026KT M03/M07 A3039 RMK A01 T10261065  RH  075%=      5-min Rain = 0
KSM2 111722Z 01025G31KT M03/M07 A3039 RMK A01 T10261065  RH  075%=      5-min Rain = 0
KSM2 111723Z 01026KT M03/M07 A3039 RMK A01 T10261065  RH  075%=      5-min Rain = 0
KSM2 111724Z 01022G27KT M03/M07 A3039 RMK A01 T10261065  RH  074%=      5-min Rain = 0
KSM2 111725Z 01021G27KT M03/M07 A304 RMK A01 T10251065  RH  074%=      5-min Rain = 0
KSM2 111726Z 00023G28KT M03/M06 A3039 RMK A01 T10251064  RH  075%=      5-min Rain = 0
KSM2 111727Z 00022KT M02/M06 A304 RMK A01 T10241064  RH  074%=      5-min Rain = 0
KSM2 111728Z 01020G25KT M03/M06 A304 RMK A01 T10251064  RH  074%=      5-min Rain = 0
KSM2 111729Z 01024G31KT M03/M06 A3039 RMK A01 T10251064  RH  074%=      5-min Rain = 0
KSM2 111730Z 00026G31KT M03/M06 A3039 RMK A01 T10251064  RH  074%=      5-min Rain = 0
KSM2 111731Z 01025G31KT M03/M06 A3039 RMK A01 T10251064  RH  074%=      5-min Rain = 0
KSM2 111732Z 01023KT M03/M06 A3039 RMK A01 T10251064  RH  075%=      5-min Rain = 0
KSM2 111733Z 01022G27KT M02/M06 A304 RMK A01 T10241063  RH  075%=      5-min Rain = 0
KSM2 111734Z 01026KT M02/M06 A3039 RMK A01 T10241064  RH  074%=      5-min Rain = 0
KSM2 111735Z 01026G34KT M03/M07 A3039 RMK A01 T10251065  RH  074%=      5-min Rain = 0
KSM2 111736Z 01029G37KT M03/M07 A3039 RMK A01 T10251065  RH  074%=      5-min Rain = 0
KSM2 111737Z 01027G34KT M03/M07 A304 RMK A01 T10251066  RH  073%=      5-min Rain = 0
KSM2 111738Z 01026G32KT M03/M07 A304 RMK A01 T10251066  RH  073%=      5-min Rain = 0
KSM2 111739Z 01026G34KT M03/M07 A304 RMK A01 T10251067  RH  073%=      5-min Rain = 0
KSM2 111740Z 01025G35KT M03/M07 A304 RMK A01 T10251068  RH  073%=      5-min Rain = 0
KSM2 111741Z 01020KT M03/M07 A304 RMK A01 T10251067  RH  073%=      5-min Rain = 0
KSM2 111742Z 01025KT M03/M07 A304 RMK A01 T10251067  RH  073%=      5-min Rain = 0
KSM2 111743Z 01025G30KT M03/M07 A304 RMK A01 T10251068  RH  072%=      5-min Rain = 0
KSM2 111744Z 01026G32KT M03/M07 A304 RMK A01 T10251069  RH  072%=      5-min Rain = 0
KSM2 111745Z 01024G29KT M03/M07 A304 RMK A01 T10261069  RH  073%=      5-min Rain = 0
KSM2 111746Z 00020G29KT M03/M07 A304 RMK A01 T10271068  RH  073%=      5-min Rain = 0
KSM2 111747Z 35025G30KT M03/M07 A304 RMK A01 T10271067  RH  073%=      5-min Rain = 0
KSM2 111748Z 36026G31KT M03/M07 A304 RMK A01 T10281069  RH  073%=      5-min Rain = 0
KSM2 111749Z 00024G29KT M03/M07 A3041 RMK A01 T10291069  RH  074%=      5-min Rain = 0
KSM2 111750Z 01024G30KT M03/M07 A3041 RMK A01 T10281068  RH  074%=      5-min Rain = 0
KSM2 111751Z 00025G31KT M03/M07 A3041 RMK A01 T10291070  RH  073%=      5-min Rain = 0
KSM2 111752Z 00025KT M03/M07 A3041 RMK A01 T10301071  RH  073%=      5-min Rain = 0
KSM2 111753Z 00027KT M03/M07 A3041 RMK A01 T10301072  RH  073%=      5-min Rain = 0
KSM2 111754Z 00027KT M03/M07 A3041 RMK A01 T10301071  RH  073%=      5-min Rain = 0
KSM2 111755Z 01026G34KT M03/M07 A3041 RMK A01 T10291071  RH  073%=      5-min Rain = 0
KSM2 111756Z 01024G29KT M03/M07 A3041 RMK A01 T10291072  RH  073%=      5-min Rain = 0
KSM2 111757Z 01025KT M03/M07 A3041 RMK A01 T10301072  RH  073%=      5-min Rain = 0
KSM2 111758Z 01028G34KT M03/M07 A3041 RMK A01 T10301072  RH  073%=      5-min Rain = 0
KSM2 111759Z 01025KT M03/M07 A3042 RMK A01 T10301072  RH  073%=      5-min Rain = 0
KSM2 111800Z 01024G29KT M03/M07 A3042 RMK A01 T10291071  RH  073%=      5-min Rain = 0
KSM2 111801Z 00026G33KT M03/M07 A3042 RMK A01 T10291070  RH  073%=      5-min Rain = 0
KSM2 111802Z 01025G30KT M03/M07 A3042 RMK A01 T10291070  RH  073%=      5-min Rain = 0
KSM2 111803Z 01027KT M03/M07 A3042 RMK A01 T10291070  RH  073%=      5-min Rain = 0
KSM2 111804Z 01022KT M03/M07 A3042 RMK A01 T10291071  RH  073%=      5-min Rain = 0
KSM2 111805Z 01018G23KT M03/M07 A3042 RMK A01 T10301070  RH  074%=      5-min Rain = 0
KSM2 111806Z 00021G26KT M03/M07 A3042 RMK A01 T10291069  RH  074%=      5-min Rain = 0
KSM2 111807Z 01019KT M03/M07 A3042 RMK A01 T10291069  RH  074%=      5-min Rain = 0
KSM2 111808Z 01023KT M03/M07 A3042 RMK A01 T10291069  RH  074%=      5-min Rain = 0
KSM2 111809Z 00021KT M03/M07 A3042 RMK A01 T10291069  RH  074%=      5-min Rain = 0
KSM2 111810Z 01020KT M03/M07 A3042 RMK A01 T10291069  RH  074%=      5-min Rain = 0
KSM2 111811Z 00021G27KT M03/M07 A3042 RMK A01 T10281068  RH  074%=      5-min Rain = 0
KSM2 111812Z 35023G28KT M03/M07 A3042 RMK A01 T10281067  RH  074%=      5-min Rain = 0
KSM2 111813Z 36020G27KT M03/M07 A3042 RMK A01 T10271067  RH  074%=      5-min Rain = 0
KSM2 111814Z 01022KT M03/M07 A3042 RMK A01 T10271069  RH  073%=      5-min Rain = 0
KSM2 111815Z 00022G27KT M03/M07 A3042 RMK A01 T10281072  RH  072%=      5-min Rain = 0
KSM2 111816Z 00026G31KT M03/M07 A3042 RMK A01 T10291073  RH  072%=      5-min Rain = 0
KSM2 111817Z 00025G30KT M03/M08 A3042 RMK A01 T10301076  RH  071%=      5-min Rain = 0
KSM2 111818Z 01021G27KT M03/M08 A3042 RMK A01 T10311076  RH  071%=      5-min Rain = 0
KSM2 111819Z 01027G32KT M03/M08 A3042 RMK A01 T10301075  RH  071%=      5-min Rain = 0
KSM2 111820Z 00027KT M03/M08 A3042 RMK A01 T10311078  RH  070%=      5-min Rain = 0
KSM2 111821Z 01023G28KT M03/M08 A3042 RMK A01 T10321078  RH  070%=      5-min Rain = 0
KSM2 111822Z 01021G26KT M03/M08 A3042 RMK A01 T10321078  RH  070%=      5-min Rain = 0
KSM2 111823Z 00028KT M03/M08 A3041 RMK A01 T10311078  RH  070%=      5-min Rain = 0
KSM2 111824Z 01025KT M03/M08 A3041 RMK A01 T10311079  RH  070%=      5-min Rain = 0
KSM2 111825Z 01024G29KT M03/M08 A3042 RMK A01 T10321079  RH  070%=      5-min Rain = 0
KSM2 111826Z 01027G33KT M03/M08 A3041 RMK A01 T10311079  RH  070%=      5-min Rain = 0
KSM2 111827Z 01025G30KT M03/M08 A3041 RMK A01 T10311080  RH  069%=      5-min Rain = 0
KSM2 111828Z 01022G27KT M03/M08 A3042 RMK A01 T10311079  RH  069%=      5-min Rain = 0
KSM2 111829Z 01020G26KT M03/M08 A3042 RMK A01 T10301078  RH  070%=      5-min Rain = 0
KSM2 111830Z 02024G31KT M03/M08 A3041 RMK A01 T10291077  RH  069%=      5-min Rain = 0
KSM2 111831Z 01022KT M03/M08 A3041 RMK A01 T10301078  RH  069%=      5-min Rain = 0
KSM2 111832Z 01021G27KT M03/M08 A3041 RMK A01 T10291078  RH  069%=      5-min Rain = 0
KSM2 111833Z 01019KT M03/M08 A3041 RMK A01 T10281077  RH  069%=      5-min Rain = 0
KSM2 111834Z 01021G28KT M03/M08 A3041 RMK A01 T10271076  RH  069%=      5-min Rain = 0
KSM2 111835Z 00018KT M03/M08 A3042 RMK A01 T10271077  RH  069%=      5-min Rain = 0
KSM2 111836Z 00021G27KT M03/M08 A3041 RMK A01 T10281076  RH  069%=      5-min Rain = 0
KSM2 111837Z 00022G27KT M03/M08 A3041 RMK A01 T10281075  RH  070%=      5-min Rain = 0
KSM2 111838Z 00022KT M03/M08 A3041 RMK A01 T10291076  RH  070%=      5-min Rain = 0
KSM2 111839Z 00023G28KT M03/M08 A3041 RMK A01 T10281075  RH  070%=      5-min Rain = 0
KSM2 111840Z 36021KT M03/M08 A3041 RMK A01 T10291075  RH  070%=      5-min Rain = 0
KSM2 111841Z 35024KT M03/M08 A3041 RMK A01 T10291076  RH  070%=      5-min Rain = 0
KSM2 111842Z 01021G31KT M03/M08 A3041 RMK A01 T10301077  RH  070%=      5-min Rain = 0
KSM2 111843Z 00028KT M03/M08 A304 RMK A01 T10301077  RH  070%=      5-min Rain = 0
KSM2 111844Z 01025G30KT M03/M08 A304 RMK A01 T10311080  RH  069%=      5-min Rain = 0
KSM2 111845Z 00024KT M03/M08 A304 RMK A01 T10321079  RH  070%=      5-min Rain = 0
KSM2 111846Z 00025KT M03/M08 A304 RMK A01 T10311079  RH  070%=      5-min Rain = 0
KSM2 111847Z 01025G31KT M03/M08 A304 RMK A01 T10321080  RH  069%=      5-min Rain = 0
KSM2 111848Z 01025KT M03/M08 A3039 RMK A01 T10321080  RH  069%=      5-min Rain = 0
KSM2 111849Z 00026G31KT M03/M08 A3039 RMK A01 T10321081  RH  069%=      5-min Rain = 0
KSM2 111850Z 01023KT M03/M08 A304 RMK A01 T10331081  RH  069%=      5-min Rain = 0
KSM2 111851Z 01023G28KT M03/M08 A304 RMK A01 T10331081  RH  070%=      5-min Rain = 0
KSM2 111852Z 01024G30KT M03/M08 A304 RMK A01 T10321080  RH  070%=      5-min Rain = 0
KSM2 111853Z 00023KT M03/M08 A304 RMK A01 T10311080  RH  069%=      5-min Rain = 0
KSM2 111854Z 01023KT M03/M08 A304 RMK A01 T10311080  RH  069%=      5-min Rain = 0
KSM2 111855Z 01022KT M03/M08 A304 RMK A01 T10311080  RH  069%=      5-min Rain = 0
KSM2 111856Z 01022KT M03/M08 A304 RMK A01 T10311080  RH  069%=      5-min Rain = 0
KSM2 111857Z 01023G30KT M03/M08 A3041 RMK A01 T10311080  RH  069%=      5-min Rain = 0
KSM2 111858Z 01021KT M03/M08 A3041 RMK A01 T10311079  RH  069%=      5-min Rain = 0
KSM2 111859Z 01021G28KT M03/M08 A3041 RMK A01 T10301079  RH  069%=      5-min Rain = 0
KSM2 111900Z 01021G26KT M03/M08 A3041 RMK A01 T10301079  RH  069%=      5-min Rain = 0
KSM2 111901Z 01023G29KT M03/M08 A304 RMK A01 T10301079  RH  069%=      5-min Rain = 0
KSM2 111902Z 01025G31KT M03/M08 A304 RMK A01 T10301081  RH  068%=      5-min Rain = 0
KSM2 111903Z 00023G28KT M03/M08 A304 RMK A01 T10311081  RH  068%=      5-min Rain = 0
KSM2 111904Z 01020KT M03/M08 A304 RMK A01 T10301079  RH  069%=      5-min Rain = 0
KSM2 111905Z 00022KT M03/M08 A304 RMK A01 T10291079  RH  068%=      5-min Rain = 0
KSM2 111906Z 01026KT M03/M08 A304 RMK A01 T10281079  RH  068%=      5-min Rain = 0
KSM2 111907Z 00024KT M03/M08 A304 RMK A01 T10281080  RH  068%=      5-min Rain = 0
KSM2 111908Z 01026G31KT M03/M08 A304 RMK A01 T10291081  RH  068%=      5-min Rain = 0
KSM2 111909Z 00022G27KT M03/M08 A304 RMK A01 T10301082  RH  067%=      5-min Rain = 0
KSM2 111910Z 01021KT M03/M08 A304 RMK A01 T10301081  RH  068%=      5-min Rain = 0
KSM2 111911Z 00024G31KT M03/M08 A3041 RMK A01 T10301082  RH  067%=      5-min Rain = 0
KSM2 111912Z 01025G31KT M03/M08 A304 RMK A01 T10311084  RH  067%=      5-min Rain = 0
KSM2 111913Z 00021G26KT M03/M09 A3041 RMK A01 T10321085  RH  066%=      5-min Rain = 0
KSM2 111914Z 01022KT M03/M09 A3041 RMK A01 T10311085  RH  066%=      5-min Rain = 0
KSM2 111915Z 00024KT M03/M09 A3041 RMK A01 T10311086  RH  066%=      5-min Rain = 0
KSM2 111916Z 36021G26KT M03/M09 A3041 RMK A01 T10311087  RH  065%=      5-min Rain = 0
KSM2 111917Z 01021G26KT M03/M09 A3041 RMK A01 T10311087  RH  065%=      5-min Rain = 0
KSM2 111918Z 01021G26KT M03/M09 A3041 RMK A01 T10311087  RH  065%=      5-min Rain = 0
KSM2 111919Z 01021G27KT M03/M09 A3041 RMK A01 T10311088  RH  065%=      5-min Rain = 0
KSM2 111920Z 01018KT M03/M09 A3042 RMK A01 T10311088  RH  065%=      5-min Rain = 0
KSM2 111921Z 01024G29KT M03/M09 A3041 RMK A01 T10301087  RH  065%=      5-min Rain = 0
KSM2 111922Z 01023G28KT M03/M09 A3041 RMK A01 T10301088  RH  064%=      5-min Rain = 0
KSM2 111923Z 01021KT M03/M09 A3041 RMK A01 T10311089  RH  064%=      5-min Rain = 0
KSM2 111924Z 01019G26KT M03/M09 A3042 RMK A01 T10311090  RH  064%=      5-min Rain = 0
KSM2 111925Z 00025KT M03/M09 A3041 RMK A01 T10301088  RH  064%=      5-min Rain = 0
KSM2 111926Z 01021KT M03/M09 A3041 RMK A01 T10301088  RH  064%=      5-min Rain = 0
KSM2 111927Z 01020KT M03/M09 A3042 RMK A01 T10291088  RH  064%=      5-min Rain = 0
KSM2 111928Z 01017G22KT M03/M09 A3042 RMK A01 T10281087  RH  064%=      5-min Rain = 0
KSM2 111929Z 01023G28KT M03/M09 A3041 RMK A01 T10271086  RH  064%=      5-min Rain = 0
KSM2 111930Z 01021G26KT M03/M09 A3041 RMK A01 T10271088  RH  063%=      5-min Rain = 0
KSM2 111931Z 01020KT M03/M09 A3042 RMK A01 T10281089  RH  063%=      5-min Rain = 0
KSM2 111932Z 01024G31KT M03/M09 A3041 RMK A01 T10271087  RH  063%=      5-min Rain = 0
KSM2 111933Z 00023G28KT M03/M09 A3041 RMK A01 T10281089  RH  063%=      5-min Rain = 0
KSM2 111934Z 01021G28KT M03/M09 A3041 RMK A01 T10281090  RH  063%=      5-min Rain = 0
KSM2 111935Z 00026G31KT M03/M09 A3041 RMK A01 T10281089  RH  063%=      5-min Rain = 0
KSM2 111936Z 01023G28KT M03/M09 A3041 RMK A01 T10271089  RH  063%=      5-min Rain = 0
KSM2 111937Z 36026KT M03/M09 A3041 RMK A01 T10261088  RH  063%=      5-min Rain = 0
KSM2 111938Z 00023KT M03/M09 A3041 RMK A01 T10251087  RH  062%=      5-min Rain = 0
KSM2 111939Z 01019KT M02/M09 A3041 RMK A01 T10241086  RH  062%=      5-min Rain = 0
KSM2 111940Z 01020G25KT M02/M09 A3041 RMK A01 T10231086  RH  062%=      5-min Rain = 0
KSM2 111941Z 01019KT M02/M09 A3041 RMK A01 T10231086  RH  062%=      5-min Rain = 0
KSM2 111942Z 01018G23KT M02/M08 A3041 RMK A01 T10211084  RH  062%=      5-min Rain = 0
KSM2 111943Z 01022G27KT M02/M08 A3042 RMK A01 T10201084  RH  062%=      5-min Rain = 0
KSM2 111944Z 01019G25KT M02/M09 A3042 RMK A01 T10211086  RH  061%=      5-min Rain = 0
KSM2 111945Z 02022G29KT M02/M09 A3042 RMK A01 T10211085  RH  062%=      5-min Rain = 0
KSM2 111946Z 01022G30KT M02/M09 A3042 RMK A01 T10221088  RH  061%=      5-min Rain = 0
KSM2 111947Z 01023G29KT M02/M09 A3042 RMK A01 T10241089  RH  061%=      5-min Rain = 0
KSM2 111948Z 01024G29KT M03/M09 A3042 RMK A01 T10251089  RH  061%=      5-min Rain = 0
KSM2 111949Z 01022KT M03/M09 A3042 RMK A01 T10251090  RH  061%=      5-min Rain = 0
KSM2 111950Z 01023G31KT M03/M09 A3042 RMK A01 T10251089  RH  061%=      5-min Rain = 0
KSM2 111951Z 02022G27KT M03/M09 A3042 RMK A01 T10251089  RH  061%=      5-min Rain = 0
KSM2 111952Z 01024KT M02/M09 A3042 RMK A01 T10241089  RH  061%=      5-min Rain = 0
KSM2 111953Z 01021KT M03/M09 A3042 RMK A01 T10251090  RH  061%=      5-min Rain = 0
KSM2 111954Z 02020G28KT M02/M09 A3042 RMK A01 T10241088  RH  062%=      5-min Rain = 0
KSM2 111955Z 02024G29KT M02/M09 A3042 RMK A01 T10231087  RH  061%=      5-min Rain = 0
KSM2 111956Z 01021G28KT M02/M09 A3042 RMK A01 T10231088  RH  061%=      5-min Rain = 0
KSM2 111957Z 01024G31KT M02/M09 A3042 RMK A01 T10231089  RH  061%=      5-min Rain = 0
KSM2 111958Z 01020G28KT M02/M09 A3042 RMK A01 T10241090  RH  061%=      5-min Rain = 0
KSM2 111959Z 00019KT M02/M09 A3042 RMK A01 T10241089  RH  061%=      5-min Rain = 0
KSM2 112000Z 01021KT M02/M09 A3042 RMK A01 T10241089  RH  061%=      5-min Rain = 0
KSM2 112001Z 00025KT M02/M09 A3042 RMK A01 T10241089  RH  061%=      5-min Rain = 0
KSM2 112002Z 01023G28KT M02/M09 A3042 RMK A01 T10241089  RH  061%=      5-min Rain = 0
KSM2 112003Z 00022KT M02/M09 A3042 RMK A01 T10241088  RH  061%=      5-min Rain = 0
KSM2 112004Z 00024KT M02/M09 A3042 RMK A01 T10241088  RH  061%=      5-min Rain = 0
KSM2 112005Z 00024G29KT M02/M09 A3042 RMK A01 T10241089  RH  061%=      5-min Rain = 0
KSM2 112006Z 00022KT M02/M09 A3042 RMK A01 T10241088  RH  062%=      5-min Rain = 0
KSM2 112007Z 00023KT M02/M09 A3042 RMK A01 T10241088  RH  062%=      5-min Rain = 0
KSM2 112008Z 00020KT M02/M09 A3042 RMK A01 T10241088  RH  062%=      5-min Rain = 0
KSM2 112009Z 00020G25KT M02/M09 A3043 RMK A01 T10231086  RH  062%=      5-min Rain = 0
KSM2 112010Z 00024KT M02/M09 A3042 RMK A01 T10231087  RH  062%=      5-min Rain = 0
KSM2 112011Z 00023KT M02/M09 A3042 RMK A01 T10241088  RH  061%=      5-min Rain = 0
KSM2 112012Z 00021G27KT M02/M09 A3043 RMK A01 T10241087  RH  062%=      5-min Rain = 0
KSM2 112013Z 01022KT M02/M09 A3042 RMK A01 T10221087  RH  061%=      5-min Rain = 0
KSM2 112014Z 02019G24KT M02/M09 A3043 RMK A01 T10231088  RH  061%=      5-min Rain = 0
KSM2 112015Z 01017KT M02/M09 A3043 RMK A01 T10221087  RH  061%=      5-min Rain = 0
KSM2 112016Z 00016G24KT M02/M09 A3043 RMK A01 T10201085  RH  061%=      5-min Rain = 0
KSM2 112017Z 00022G27KT M02/M09 A3042 RMK A01 T10191085  RH  061%=      5-min Rain = 0
KSM2 112018Z 00023KT M02/M09 A3042 RMK A01 T10201088  RH  060%=      5-min Rain = 0
KSM2 112019Z 00021G26KT M02/M09 A3042 RMK A01 T10221089  RH  060%=      5-min Rain = 0
KSM2 112020Z 01020KT M02/M09 A3042 RMK A01 T10211088  RH  060%=      5-min Rain = 0
KSM2 112021Z 00021G28KT M02/M09 A3042 RMK A01 T10191085  RH  060%=      5-min Rain = 0
KSM2 112022Z 02021KT M02/M09 A3042 RMK A01 T10181086  RH  060%=      5-min Rain = 0
KSM2 112023Z 01022KT M02/M09 A3043 RMK A01 T10191087  RH  059%=      5-min Rain = 0
KSM2 112024Z 00022KT M02/M09 A3043 RMK A01 T10191088  RH  059%=      5-min Rain = 0
KSM2 112025Z 02017KT M02/M09 A3043 RMK A01 T10201086  RH  060%=      5-min Rain = 0
KSM2 112026Z 01018G23KT M02/M09 A3043 RMK A01 T10171085  RH  060%=      5-min Rain = 0
KSM2 112027Z 01024G33KT M02/M09 A3043 RMK A01 T10171087  RH  059%=      5-min Rain = 0
KSM2 112028Z 01026KT M02/M09 A3043 RMK A01 T10201090  RH  058%=      5-min Rain = 0
KSM2 112029Z 01024G29KT M02/M09 A3043 RMK A01 T10211092  RH  058%=      5-min Rain = 0
KSM2 112030Z 01022KT M02/M09 A3043 RMK A01 T10211092  RH  059%=      5-min Rain = 0
KSM2 112031Z 01020KT M02/M09 A3043 RMK A01 T10221092  RH  059%=      5-min Rain = 0
KSM2 112032Z 01021G26KT M02/M09 A3044 RMK A01 T10211091  RH  059%=      5-min Rain = 0
KSM2 112033Z 00019G24KT M02/M09 A3044 RMK A01 T10211092  RH  058%=      5-min Rain = 0
KSM2 112034Z 00018G23KT M02/M09 A3044 RMK A01 T10201090  RH  059%=      5-min Rain = 0
KSM2 112035Z 01018KT M02/M09 A3044 RMK A01 T10191090  RH  058%=      5-min Rain = 0
KSM2 112036Z 01021KT M02/M09 A3044 RMK A01 T10191092  RH  058%=      5-min Rain = 0
KSM2 112037Z 01023KT M02/M09 A3044 RMK A01 T10211093  RH  057%=      5-min Rain = 0
KSM2 112038Z 01019KT M02/M09 A3044 RMK A01 T10211093  RH  058%=      5-min Rain = 0
KSM2 112039Z 02020G26KT M02/M09 A3044 RMK A01 T10191090  RH  058%=      5-min Rain = 0
KSM2 112040Z 01020KT M02/M09 A3044 RMK A01 T10191091  RH  058%=      5-min Rain = 0
KSM2 112041Z 01020G25KT M02/M09 A3044 RMK A01 T10191091  RH  058%=      5-min Rain = 0
KSM2 112042Z 01023KT M02/M09 A3044 RMK A01 T10211094  RH  057%=      5-min Rain = 0
KSM2 112043Z 01022KT M02/M10 A3044 RMK A01 T10231096  RH  058%=      5-min Rain = 0
KSM2 112044Z 01020G28KT M02/M10 A3044 RMK A01 T10241095  RH  058%=      5-min Rain = 0
KSM2 112045Z 01023G28KT M02/M09 A3044 RMK A01 T10231094  RH  059%=      5-min Rain = 0
KSM2 112046Z 02022G27KT M02/M09 A3043 RMK A01 T10231094  RH  058%=      5-min Rain = 0
KSM2 112047Z 01023G29KT M02/M09 A3043 RMK A01 T10231094  RH  058%=      5-min Rain = 0
KSM2 112048Z 00021G27KT M02/M09 A3043 RMK A01 T10231094  RH  058%=      5-min Rain = 0
KSM2 112049Z 02020G29KT M02/M09 A3043 RMK A01 T10211091  RH  059%=      5-min Rain = 0
KSM2 112050Z 02023G29KT M02/M09 A3043 RMK A01 T10201091  RH  058%=      5-min Rain = 0
KSM2 112051Z 01020G26KT M02/M09 A3044 RMK A01 T10211094  RH  057%=      5-min Rain = 0
KSM2 112052Z 01022KT M02/M10 A3044 RMK A01 T10221095  RH  057%=      5-min Rain = 0
KSM2 112053Z 02021G28KT M02/M10 A3044 RMK A01 T10221095  RH  057%=      5-min Rain = 0
KSM2 112054Z 01021KT M02/M09 A3044 RMK A01 T10221094  RH  057%=      5-min Rain = 0
KSM2 112055Z 01021KT M02/M10 A3044 RMK A01 T10221095  RH  057%=      5-min Rain = 0
KSM2 112056Z 01021G27KT M02/M09 A3044 RMK A01 T10211094  RH  057%=      5-min Rain = 0
KSM2 112057Z 01023G28KT M02/M10 A3044 RMK A01 T10201095  RH  057%=      5-min Rain = 0
KSM2 112058Z 01022KT M02/M10 A3044 RMK A01 T10211096  RH  056%=      5-min Rain = 0
KSM2 112059Z 02024KT M02/M10 A3044 RMK A01 T10211096  RH  057%=      5-min Rain = 0
KSM2 112100Z 02022KT M02/M10 A3045 RMK A01 T10211095  RH  057%=      5-min Rain = 0
KSM2 112101Z 01019G26KT M02/M10 A3045 RMK A01 T10211096  RH  057%=      5-min Rain = 0
KSM2 112102Z 01023KT M02/M10 A3045 RMK A01 T10211095  RH  057%=      5-min Rain = 0
KSM2 112103Z 02021KT M02/M10 A3045 RMK A01 T10211096  RH  056%=      5-min Rain = 0
KSM2 112104Z 01024KT M02/M10 A3045 RMK A01 T10211096  RH  056%=      5-min Rain = 0
KSM2 112105Z 02019KT M02/M10 A3045 RMK A01 T10221097  RH  056%=      5-min Rain = 0
KSM2 112106Z 01019G24KT M02/M10 A3045 RMK A01 T10221096  RH  057%=      5-min Rain = 0
KSM2 112107Z 01018KT M02/M10 A3045 RMK A01 T10211096  RH  057%=      5-min Rain = 0
KSM2 112108Z 01016G21KT M02/M09 A3045 RMK A01 T10201094  RH  057%=      5-min Rain = 0
KSM2 112109Z 01021G26KT M02/M09 A3045 RMK A01 T10181094  RH  056%=      5-min Rain = 0
KSM2 112110Z 01021KT M02/M10 A3045 RMK A01 T10191095  RH  056%=      5-min Rain = 0
KSM2 112111Z 00022KT M02/M10 A3045 RMK A01 T10191096  RH  056%=      5-min Rain = 0
KSM2 112112Z 00022G27KT M02/M10 A3045 RMK A01 T10191095  RH  056%=      5-min Rain = 0
KSM2 112113Z 01023G28KT M02/M09 A3044 RMK A01 T10171094  RH  056%=      5-min Rain = 0
KSM2 112114Z 02019G24KT M02/M09 A3045 RMK A01 T10171093  RH  056%=      5-min Rain = 0
KSM2 112115Z 02024KT M02/M09 A3044 RMK A01 T10161093  RH  055%=      5-min Rain = 0
KSM2 112116Z 02019KT M02/M10 A3045 RMK A01 T10171095  RH  055%=      5-min Rain = 0
KSM2 112117Z 01024KT M02/M10 A3044 RMK A01 T10171095  RH  055%=      5-min Rain = 0
KSM2 112118Z 01021KT M02/M10 A3045 RMK A01 T10181097  RH  055%=      5-min Rain = 0
KSM2 112119Z 02018G23KT M02/M10 A3045 RMK A01 T10181095  RH  056%=      5-min Rain = 0
KSM2 112120Z 02020KT M02/M09 A3045 RMK A01 T10171094  RH  056%=      5-min Rain = 0
KSM2 112121Z 02020KT M02/M09 A3045 RMK A01 T10171094  RH  055%=      5-min Rain = 0
KSM2 112122Z 02019KT M02/M10 A3044 RMK A01 T10181096  RH  055%=      5-min Rain = 0
KSM2 112123Z 01017G23KT M02/M10 A3044 RMK A01 T10181095  RH  056%=      5-min Rain = 0
KSM2 112124Z 01018KT M02/M09 A3044 RMK A01 T10171094  RH  056%=      5-min Rain = 0
KSM2 112125Z 01019KT M02/M09 A3044 RMK A01 T10151093  RH  055%=      5-min Rain = 0
KSM2 112126Z 01020G26KT M02/M09 A3044 RMK A01 T10151094  RH  055%=      5-min Rain = 0
KSM2 112127Z 02019KT M02/M09 A3044 RMK A01 T10151094  RH  055%=      5-min Rain = 0
KSM2 112128Z 02022KT M02/M09 A3044 RMK A01 T10151094  RH  055%=      5-min Rain = 0
KSM2 112129Z 01017KT M02/M10 A3045 RMK A01 T10151095  RH  054%=      5-min Rain = 0
KSM2 112130Z 01017G22KT M01/M09 A3045 RMK A01 T10131093  RH  055%=      5-min Rain = 0
KSM2 112131Z 01020KT M01/M09 A3045 RMK A01 T10131094  RH  054%=      5-min Rain = 0
KSM2 112132Z 01017KT M01/M10 A3045 RMK A01 T10141096  RH  054%=      5-min Rain = 0
KSM2 112133Z 01013KT M02/M10 A3046 RMK A01 T10151095  RH  054%=      5-min Rain = 0
KSM2 112134Z 02018KT M01/M09 A3045 RMK A01 T10141093  RH  055%=      5-min Rain = 0
KSM2 112135Z 00018G23KT M01/M10 A3045 RMK A01 T10141095  RH  054%=      5-min Rain = 0
KSM2 112136Z 01019G24KT M01/M10 A3045 RMK A01 T10141095  RH  054%=      5-min Rain = 0
KSM2 112137Z 01017KT M02/M10 A3046 RMK A01 T10151095  RH  054%=      5-min Rain = 0
KSM2 112138Z 01018KT M01/M09 A3046 RMK A01 T10141094  RH  054%=      5-min Rain = 0
KSM2 112139Z 00019G28KT M01/M10 A3046 RMK A01 T10141095  RH  054%=      5-min Rain = 0
KSM2 112140Z 01022KT M01/M10 A3047 RMK A01 T10141096  RH  054%=      5-min Rain = 0
KSM2 112141Z 01019KT M02/M10 A3047 RMK A01 T10151098  RH  053%=      5-min Rain = 0
KSM2 112142Z 01015G20KT M02/M10 A3047 RMK A01 T10161097  RH  054%=      5-min Rain = 0
KSM2 112143Z 00019KT M02/M09 A3047 RMK A01 T10151094  RH  055%=      5-min Rain = 0
KSM2 112144Z 01019KT M01/M10 A3047 RMK A01 T10141095  RH  054%=      5-min Rain = 0
KSM2 112145Z 01017KT M02/M10 A3047 RMK A01 T10151096  RH  054%=      5-min Rain = 0
KSM2 112146Z 00016KT M02/M10 A3048 RMK A01 T10161096  RH  054%=      5-min Rain = 0
KSM2 112147Z 36017KT M02/M10 A3048 RMK A01 T10151095  RH  055%=      5-min Rain = 0
KSM2 112148Z 00017KT M02/M09 A3048 RMK A01 T10151094  RH  055%=      5-min Rain = 0
KSM2 112149Z 00015KT M02/M10 A3048 RMK A01 T10151096  RH  054%=      5-min Rain = 0
KSM2 112150Z 01015KT M02/M10 A3048 RMK A01 T10151096  RH  054%=      5-min Rain = 0
KSM2 112151Z 00015KT M02/M10 A3048 RMK A01 T10161096  RH  054%=      5-min Rain = 0
KSM2 112152Z 01014KT M02/M10 A3048 RMK A01 T10151095  RH  055%=      5-min Rain = 0
KSM2 112153Z 02014KT M01/M09 A3048 RMK A01 T10141094  RH  055%=      5-min Rain = 0
KSM2 112154Z 01012G18KT M01/M09 A3048 RMK A01 T10131092  RH  055%=      5-min Rain = 0
KSM2 112155Z 01015KT M01/M09 A3048 RMK A01 T10121091  RH  055%=      5-min Rain = 0
KSM2 112156Z 02015KT M01/M09 A3048 RMK A01 T10131094  RH  054%=      5-min Rain = 0
KSM2 112157Z 01013G18KT M01/M10 A3049 RMK A01 T10131095  RH  054%=      5-min Rain = 0
KSM2 112158Z 01012KT M01/M09 A3049 RMK A01 T10141094  RH  054%=      5-min Rain = 0
KSM2 112159Z 01018KT M01/M09 A3049 RMK A01 T10131092  RH  055%=      5-min Rain = 0
KSM2 112200Z 01018KT M01/M09 A3048 RMK A01 T10131094  RH  054%=      5-min Rain = 0
KSM2 112201Z 01014KT M01/M10 A3048 RMK A01 T10141096  RH  054%=      5-min Rain = 0
KSM2 112202Z 01016KT M01/M10 A3048 RMK A01 T10141096  RH  054%=      5-min Rain = 0
KSM2 112203Z 00017KT M01/M10 A3048 RMK A01 T10141095  RH  054%=      5-min Rain = 0
KSM2 112204Z 00018KT M01/M09 A3048 RMK A01 T10131094  RH  054%=      5-min Rain = 0
KSM2 112205Z 36021KT M01/M09 A3048 RMK A01 T10131094  RH  054%=      5-min Rain = 0
KSM2 112206Z 00018KT M01/M09 A3048 RMK A01 T10131094  RH  054%=      5-min Rain = 0
KSM2 112207Z 01017KT M01/M09 A3048 RMK A01 T10131094  RH  054%=      5-min Rain = 0
KSM2 112208Z 01018KT M01/M10 A3048 RMK A01 T10131095  RH  054%=      5-min Rain = 0
KSM2 112209Z 01015KT M01/M10 A3048 RMK A01 T10141096  RH  054%=      5-min Rain = 0
KSM2 112210Z 01019KT M01/M10 A3048 RMK A01 T10141095  RH  054%=      5-min Rain = 0
KSM2 112211Z 01018KT M01/M10 A3048 RMK A01 T10141096  RH  054%=      5-min Rain = 0
KSM2 112212Z 01018KT M01/M10 A3048 RMK A01 T10141095  RH  054%=      5-min Rain = 0
KSM2 112213Z 01015G20KT M01/M09 A3048 RMK A01 T10141094  RH  054%=      5-min Rain = 0
KSM2 112214Z 00016KT M01/M09 A3047 RMK A01 T10131094  RH  054%=      5-min Rain = 0
KSM2 112215Z 01014KT M01/M10 A3047 RMK A01 T10131095  RH  054%=      5-min Rain = 0
KSM2 112216Z 02017KT M01/M09 A3047 RMK A01 T10121093  RH  054%=      5-min Rain = 0
KSM2 112217Z 01017KT M01/M09 A3048 RMK A01 T10121093  RH  054%=      5-min Rain = 0
KSM2 112218Z 02017KT M01/M09 A3048 RMK A01 T10111094  RH  054%=      5-min Rain = 0
KSM2 112219Z 02016KT M01/M09 A3048 RMK A01 T10121094  RH  054%=      5-min Rain = 0
KSM2 112220Z 02019KT M01/M09 A3048 RMK A01 T10121094  RH  054%=      5-min Rain = 0
KSM2 112221Z 01017G22KT M01/M09 A3048 RMK A01 T10121094  RH  054%=      5-min Rain = 0
KSM2 112222Z 02018KT M01/M09 A3048 RMK A01 T10121094  RH  054%=      5-min Rain = 0
KSM2 112223Z 02014KT M01/M09 A3048 RMK A01 T10121094  RH  054%=      5-min Rain = 0
KSM2 112224Z 01015KT M01/M09 A3048 RMK A01 T10121093  RH  054%=      5-min Rain = 0
KSM2 112225Z 01013KT M01/M09 A3048 RMK A01 T10121094  RH  054%=      5-min Rain = 0
KSM2 112226Z 01013KT M01/M09 A3048 RMK A01 T10121093  RH  054%=      5-min Rain = 0
KSM2 112227Z 01013KT M01/M09 A3048 RMK A01 T10121094  RH  054%=      5-min Rain = 0
KSM2 112228Z 01017KT M01/M10 A3048 RMK A01 T10131095  RH  054%=      5-min Rain = 0
KSM2 112229Z 01017KT M01/M10 A3048 RMK A01 T10131095  RH  054%=      5-min Rain = 0
KSM2 112230Z 01014KT M01/M10 A3048 RMK A01 T10131095  RH  054%=      5-min Rain = 0
KSM2 112231Z 02016KT M01/M09 A3048 RMK A01 T10131094  RH  054%=      5-min Rain = 0
KSM2 112232Z 01015KT M01/M09 A3048 RMK A01 T10131093  RH  054%=      5-min Rain = 0
KSM2 112233Z 01014KT M01/M09 A3048 RMK A01 T10121093  RH  054%=      5-min Rain = 0
KSM2 112234Z 01016KT M01/M09 A3048 RMK A01 T10121093  RH  054%=      5-min Rain = 0
KSM2 112235Z 00015KT M01/M09 A3048 RMK A01 T10111093  RH  054%=      5-min Rain = 0
KSM2 112236Z 01014KT M01/M09 A3048 RMK A01 T10111093  RH  054%=      5-min Rain = 0
KSM2 112237Z 00015KT M01/M09 A3048 RMK A01 T10111093  RH  054%=      5-min Rain = 0
KSM2 112238Z 01013KT M01/M09 A3048 RMK A01 T10111093  RH  054%=      5-min Rain = 0
KSM2 112239Z 02015KT M01/M09 A3048 RMK A01 T10111091  RH  054%=      5-min Rain = 0
KSM2 112240Z 01014KT M01/M09 A3048 RMK A01 T10101092  RH  054%=      5-min Rain = 0
KSM2 112241Z 01016KT M01/M09 A3048 RMK A01 T10101092  RH  054%=      5-min Rain = 0
KSM2 112242Z 02013KT M01/M09 A3048 RMK A01 T10111092  RH  054%=      5-min Rain = 0
KSM2 112243Z 00015KT M01/M09 A3048 RMK A01 T10111092  RH  054%=      5-min Rain = 0
KSM2 112244Z 01014KT M01/M09 A3048 RMK A01 T10101092  RH  054%=      5-min Rain = 0
KSM2 112245Z 01018KT M01/M09 A3048 RMK A01 T10101092  RH  054%=      5-min Rain = 0
KSM2 112246Z 01016G21KT M01/M09 A3048 RMK A01 T10101092  RH  053%=      5-min Rain = 0
KSM2 112247Z 01017KT M01/M09 A3048 RMK A01 T10091092  RH  054%=      5-min Rain = 0
KSM2 112248Z 01016G21KT M01/M09 A3048 RMK A01 T10091092  RH  053%=      5-min Rain = 0
KSM2 112249Z 01015G21KT M01/M09 A3048 RMK A01 T10091091  RH  054%=      5-min Rain = 0
KSM2 112250Z 00018KT M01/M09 A3048 RMK A01 T10081091  RH  054%=      5-min Rain = 0
KSM2 112251Z 01019KT M01/M09 A3047 RMK A01 T10081092  RH  053%=      5-min Rain = 0
KSM2 112252Z 01014KT M01/M09 A3047 RMK A01 T10081092  RH  053%=      5-min Rain = 0
KSM2 112253Z 01017G22KT M01/M09 A3048 RMK A01 T10091091  RH  054%=      5-min Rain = 0
KSM2 112254Z 01017KT M01/M09 A3048 RMK A01 T10081092  RH  053%=      5-min Rain = 0
KSM2 112255Z 02015G20KT M01/M09 A3048 RMK A01 T10081091  RH  053%=      5-min Rain = 0
KSM2 112256Z 02017KT M01/M09 A3048 RMK A01 T10081091  RH  053%=      5-min Rain = 0
KSM2 112257Z 01017G22KT M01/M09 A3048 RMK A01 T10091092  RH  053%=      5-min Rain = 0
KSM2 112258Z 02016G21KT M01/M09 A3048 RMK A01 T10091093  RH  053%=      5-min Rain = 0
KSM2 112259Z 01016KT M01/M09 A3048 RMK A01 T10091092  RH  053%=      5-min Rain = 0
KSM2 112300Z 01019KT M01/M09 A3047 RMK A01 T10091092  RH  053%=      5-min Rain = 0
KSM2 112301Z 01020KT M01/M09 A3048 RMK A01 T10091093  RH  053%=      5-min Rain = 0
KSM2 112302Z 00020KT M01/M09 A3048 RMK A01 T10091094  RH  053%=      5-min Rain = 0
KSM2 112303Z 00021KT M01/M10 A3048 RMK A01 T10101095  RH  053%=      5-min Rain = 0
KSM2 112304Z 00022KT M01/M10 A3048 RMK A01 T10101095  RH  052%=      5-min Rain = 0
KSM2 112305Z 01019KT M01/M10 A3048 RMK A01 T10101095  RH  052%=      5-min Rain = 0
KSM2 112306Z 00017KT M01/M10 A3048 RMK A01 T10101095  RH  052%=      5-min Rain = 0
KSM2 112307Z 01018KT M01/M09 A3048 RMK A01 T10101094  RH  053%=      5-min Rain = 0
KSM2 112308Z 01019KT M01/M10 A3048 RMK A01 T10101095  RH  052%=      5-min Rain = 0
KSM2 112309Z 01018KT M01/M10 A3048 RMK A01 T10101095  RH  053%=      5-min Rain = 0
KSM2 112310Z 01019KT M01/M10 A3048 RMK A01 T10101095  RH  052%=      5-min Rain = 0
KSM2 112311Z 01016G22KT M01/M10 A3048 RMK A01 T10101095  RH  052%=      5-min Rain = 0
KSM2 112312Z 01016KT M01/M09 A3048 RMK A01 T10101094  RH  053%=      5-min Rain = 0
KSM2 112313Z 01015KT M01/M09 A3048 RMK A01 T10091094  RH  053%=      5-min Rain = 0
KSM2 112314Z 01014KT M01/M09 A3048 RMK A01 T10101094  RH  053%=      5-min Rain = 0
KSM2 112315Z 01019KT M01/M09 A3048 RMK A01 T10101094  RH  053%=      5-min Rain = 0
KSM2 112316Z 01015KT M01/M10 A3048 RMK A01 T10091095  RH  052%=      5-min Rain = 0
KSM2 112317Z 01017KT M01/M09 A3048 RMK A01 T10101094  RH  053%=      5-min Rain = 0
KSM2 112318Z 01018KT M01/M10 A3048 RMK A01 T10101095  RH  052%=      5-min Rain = 0
KSM2 112319Z 01017KT M01/M10 A3048 RMK A01 T10091096  RH  052%=      5-min Rain = 0
KSM2 112320Z 02018KT M01/M10 A3048 RMK A01 T10101096  RH  052%=      5-min Rain = 0
KSM2 112321Z 01016G21KT M01/M10 A3048 RMK A01 T10101096  RH  052%=      5-min Rain = 0
KSM2 112322Z 01017KT M01/M10 A3048 RMK A01 T10091095  RH  052%=      5-min Rain = 0
KSM2 112323Z 01015KT M01/M10 A3048 RMK A01 T10091095  RH  052%=      5-min Rain = 0
KSM2 112324Z 01019KT M01/M10 A3048 RMK A01 T10091095  RH  052%=      5-min Rain = 0
KSM2 112325Z 00016KT M01/M10 A3048 RMK A01 T10091095  RH  052%=      5-min Rain = 0
KSM2 112326Z 01018KT M01/M10 A3048 RMK A01 T10091095  RH  052%=      5-min Rain = 0
KSM2 112327Z 01017KT M01/M10 A3048 RMK A01 T10091096  RH  052%=      5-min Rain = 0
KSM2 112328Z 00017KT M01/M10 A3049 RMK A01 T10091096  RH  052%=      5-min Rain = 0
KSM2 112329Z 01016KT M01/M10 A3049 RMK A01 T10091095  RH  052%=      5-min Rain = 0
KSM2 112330Z 00017KT M01/M10 A3049 RMK A01 T10091095  RH  052%=      5-min Rain = 0
KSM2 112331Z 01017KT M01/M10 A3049 RMK A01 T10091095  RH  052%=      5-min Rain = 0
KSM2 112332Z 01019KT M01/M10 A3049 RMK A01 T10091096  RH  052%=      5-min Rain = 0
KSM2 112333Z 01016KT M01/M10 A3049 RMK A01 T10101096  RH  052%=      5-min Rain = 0
KSM2 112334Z 01019KT M01/M10 A3049 RMK A01 T10101095  RH  052%=      5-min Rain = 0
KSM2 112335Z 01018KT M01/M10 A3049 RMK A01 T10101096  RH  052%=      5-min Rain = 0
KSM2 112336Z 36018KT M01/M10 A3049 RMK A01 T10101096  RH  052%=      5-min Rain = 0
KSM2 112337Z 01015KT M01/M10 A3049 RMK A01 T10101095  RH  053%=      5-min Rain = 0
KSM2 112338Z 01016G21KT M01/M09 A3049 RMK A01 T10101094  RH  053%=      5-min Rain = 0
KSM2 112339Z 01017KT M01/M10 A3049 RMK A01 T10101095  RH  053%=      5-min Rain = 0
KSM2 112340Z 00018KT M01/M10 A3049 RMK A01 T10111096  RH  053%=      5-min Rain = 0
KSM2 112341Z 01018KT M01/M10 A3049 RMK A01 T10111096  RH  052%=      5-min Rain = 0
KSM2 112342Z 01015KT M01/M10 A3049 RMK A01 T10111096  RH  052%=      5-min Rain = 0
KSM2 112343Z 01014KT M01/M10 A3049 RMK A01 T10111096  RH  053%=      5-min Rain = 0
KSM2 112344Z 01013KT M01/M10 A3049 RMK A01 T10121095  RH  053%=      5-min Rain = 0
KSM2 112345Z 01017KT M01/M10 A3049 RMK A01 T10121095  RH  053%=      5-min Rain = 0
KSM2 112346Z 01017KT M01/M10 A3049 RMK A01 T10121096  RH  053%=      5-min Rain = 0
KSM2 112347Z 01018KT M01/M10 A305 RMK A01 T10121096  RH  053%=      5-min Rain = 0
KSM2 112348Z 02018G23KT M01/M10 A305 RMK A01 T10121097  RH  052%=      5-min Rain = 0
KSM2 112349Z 01018KT M01/M10 A305 RMK A01 T10121097  RH  052%=      5-min Rain = 0
KSM2 112350Z 00017KT M01/M10 A305 RMK A01 T10121097  RH  052%=      5-min Rain = 0
KSM2 112351Z 01016KT M01/M10 A305 RMK A01 T10121097  RH  052%=      5-min Rain = 0
KSM2 112352Z 01017KT M01/M10 A305 RMK A01 T10121098  RH  052%=      5-min Rain = 0
KSM2 112353Z 01016KT M01/M10 A305 RMK A01 T10121098  RH  052%=      5-min Rain = 0
KSM2 112354Z 01015KT M01/M10 A305 RMK A01 T10121097  RH  052%=      5-min Rain = 0
KSM2 112355Z 01015KT M01/M10 A305 RMK A01 T10121097  RH  052%=      5-min Rain = 0
KSM2 112356Z 01013KT M01/M10 A305 RMK A01 T10121097  RH  053%=      5-min Rain = 0
KSM2 112357Z 02012G18KT M01/M10 A3051 RMK A01 T10131096  RH  053%=      5-min Rain = 0
KSM2 112358Z 01013KT M01/M10 A3051 RMK A01 T10131095  RH  054%=      5-min Rain = 0
KSM2 112359Z 01012KT M01/M10 A3051 RMK A01 T10131096  RH  053%=      5-min Rain = 0
KSM2 120000Z 01010KT M01/M10 A3051 RMK A01 T10131096  RH  054%=      5-min Rain = 0
KSM2 120001Z 00013KT M01/M10 A3051 RMK A01 T10141096  RH  054%=      5-min Rain = 0
KSM2 120002Z 01014KT M01/M10 A3051 RMK A01 T10141096  RH  054%=      5-min Rain = 0
KSM2 120003Z 01014KT M01/M10 A3051 RMK A01 T10141096  RH  053%=      5-min Rain = 0
KSM2 120004Z 01015KT M01/M10 A3051 RMK A01 T10141097  RH  053%=      5-min Rain = 0
KSM2 120005Z 01016KT M01/M10 A3051 RMK A01 T10141097  RH  053%=      5-min Rain = 0
KSM2 120006Z 01013KT M01/M10 A3051 RMK A01 T10141098  RH  053%=      5-min Rain = 0
KSM2 120007Z 01014KT M01/M10 A3051 RMK A01 T10141097  RH  053%=      5-min Rain = 0
KSM2 120008Z 01011KT M01/M10 A3051 RMK A01 T10141097  RH  053%=      5-min Rain = 0
KSM2 120009Z 01013KT M01/M10 A3051 RMK A01 T10141096  RH  054%=      5-min Rain = 0
KSM2 120010Z 01012KT M01/M10 A3051 RMK A01 T10141096  RH  054%=      5-min Rain = 0
KSM2 120011Z 01011KT M01/M10 A3051 RMK A01 T10141096  RH  054%=      5-min Rain = 0
KSM2 120012Z 01010KT M02/M10 A3051 RMK A01 T10151096  RH  054%=      5-min Rain = 0
KSM2 120013Z 01011KT M02/M10 A3051 RMK A01 T10151096  RH  054%=      5-min Rain = 0
KSM2 120014Z 01011KT M02/M10 A3051 RMK A01 T10151096  RH  054%=      5-min Rain = 0
KSM2 120015Z 01012KT M02/M10 A3051 RMK A01 T10151096  RH  054%=      5-min Rain = 0
KSM2 120016Z 02012KT M02/M10 A3051 RMK A01 T10151096  RH  054%=      5-min Rain = 0
KSM2 120017Z 02011KT M02/M10 A3051 RMK A01 T10151096  RH  054%=      5-min Rain = 0
KSM2 120018Z 01010KT M02/M10 A3052 RMK A01 T10151095  RH  054%=      5-min Rain = 0
KSM2 120019Z 01010KT M02/M10 A3052 RMK A01 T10151095  RH  054%=      5-min Rain = 0
KSM2 120020Z 01011KT M02/M10 A3052 RMK A01 T10151096  RH  054%=      5-min Rain = 0
KSM2 120021Z 01010KT M02/M10 A3052 RMK A01 T10151095  RH  054%=      5-min Rain = 0
KSM2 120022Z 01011KT M02/M10 A3052 RMK A01 T10151095  RH  054%=      5-min Rain = 0
KSM2 120023Z 01011KT M02/M10 A3052 RMK A01 T10151095  RH  054%=      5-min Rain = 0
KSM2 120024Z 01010KT M02/M10 A3052 RMK A01 T10151095  RH  055%=      5-min Rain = 0
KSM2 120025Z 00011KT M02/M10 A3052 RMK A01 T10151095  RH  055%=      5-min Rain = 0
KSM2 120026Z 01013KT M02/M10 A3052 RMK A01 T10161096  RH  054%=      5-min Rain = 0
KSM2 120027Z 01013KT M02/M10 A3052 RMK A01 T10161096  RH  054%=      5-min Rain = 0
KSM2 120028Z 01010KT M02/M10 A3052 RMK A01 T10151096  RH  054%=      5-min Rain = 0
KSM2 120029Z 01010KT M02/M10 A3052 RMK A01 T10161095  RH  055%=      5-min Rain = 0
KSM2 120030Z 01014KT M02/M10 A3052 RMK A01 T10161095  RH  055%=      5-min Rain = 0
KSM2 120031Z 01012KT M02/M10 A3052 RMK A01 T10151096  RH  054%=      5-min Rain = 0
KSM2 120032Z 01012KT M02/M10 A3052 RMK A01 T10161096  RH  054%=      5-min Rain = 0
KSM2 120033Z 01011KT M02/M10 A3052 RMK A01 T10161096  RH  054%=      5-min Rain = 0
KSM2 120034Z 01014KT M02/M10 A3052 RMK A01 T10151096  RH  054%=      5-min Rain = 0
KSM2 120035Z 00014KT M02/M10 A3052 RMK A01 T10151096  RH  054%=      5-min Rain = 0
KSM2 120036Z 01012KT M02/M10 A3052 RMK A01 T10151096  RH  054%=      5-min Rain = 0
KSM2 120037Z 01012KT M02/M10 A3052 RMK A01 T10151095  RH  054%=      5-min Rain = 0
KSM2 120038Z 01013KT M02/M10 A3052 RMK A01 T10161095  RH  055%=      5-min Rain = 0
KSM2 120039Z 01013KT M02/M10 A3052 RMK A01 T10161095  RH  055%=      5-min Rain = 0
KSM2 120040Z 01012KT M02/M10 A3052 RMK A01 T10161095  RH  055%=      5-min Rain = 0
KSM2 120041Z 01012KT M02/M10 A3052 RMK A01 T10161095  RH  055%=      5-min Rain = 0
KSM2 120042Z 01013KT M02/M10 A3052 RMK A01 T10161095  RH  055%=      5-min Rain = 0
KSM2 120043Z 01015KT M02/M10 A3052 RMK A01 T10161095  RH  055%=      5-min Rain = 0
KSM2 120044Z 01014KT M02/M10 A3052 RMK A01 T10161096  RH  054%=      5-min Rain = 0
KSM2 120045Z 00012KT M02/M10 A3052 RMK A01 T10161096  RH  054%=      5-min Rain = 0
KSM2 120046Z 01012KT M02/M10 A3052 RMK A01 T10161095  RH  055%=      5-min Rain = 0
KSM2 120047Z 01012KT M02/M10 A3052 RMK A01 T10171095  RH  055%=      5-min Rain = 0
KSM2 120048Z 01013KT M02/M10 A3052 RMK A01 T10171096  RH  055%=      5-min Rain = 0
KSM2 120049Z 00013KT M02/M10 A3052 RMK A01 T10171095  RH  055%=      5-min Rain = 0
KSM2 120050Z 01016G21KT M02/M10 A3052 RMK A01 T10181096  RH  055%=      5-min Rain = 0
KSM2 120051Z 01016KT M02/M10 A3052 RMK A01 T10171098  RH  054%=      5-min Rain = 0
KSM2 120052Z 00017KT M02/M10 A3052 RMK A01 T10171099  RH  054%=      5-min Rain = 0
KSM2 120053Z 01015KT M02/M10 A3053 RMK A01 T10171099  RH  053%=      5-min Rain = 0
KSM2 120054Z 01016KT M02/M10 A3053 RMK A01 T10171100  RH  053%=      5-min Rain = 0
KSM2 120055Z 01018KT M02/M10 A3053 RMK A01 T10171101  RH  053%=      5-min Rain = 0
KSM2 120056Z 01017KT M02/M10 A3053 RMK A01 T10171102  RH  052%=      5-min Rain = 0
KSM2 120057Z 01015KT M02/M10 A3053 RMK A01 T10171102  RH  052%=      5-min Rain = 0
KSM2 120058Z 01013KT M02/M10 A3053 RMK A01 T10171102  RH  052%=      5-min Rain = 0
KSM2 120059Z 00012KT M02/M10 A3053 RMK A01 T10181101  RH  053%=      5-min Rain = 0
KSM2 120100Z 01016KT M02/M10 A3053 RMK A01 T10181101  RH  053%=      5-min Rain = 0
KSM2 120101Z 01015KT M02/M10 A3053 RMK A01 T10181102  RH  053%=      5-min Rain = 0
KSM2 120102Z 01015KT M02/M10 A3053 RMK A01 T10181102  RH  053%=      5-min Rain = 0
KSM2 120103Z 00013KT M02/M10 A3053 RMK A01 T10181102  RH  053%=      5-min Rain = 0
KSM2 120104Z 01018G23KT M02/M10 A3053 RMK A01 T10191103  RH  053%=      5-min Rain = 0
KSM2 120105Z 00017KT M02/M11 A3053 RMK A01 T10191105  RH  052%=      5-min Rain = 0
KSM2 120106Z 01016G21KT M02/M11 A3053 RMK A01 T10191105  RH  052%=      5-min Rain = 0
KSM2 120107Z 01017KT M02/M11 A3053 RMK A01 T10191107  RH  051%=      5-min Rain = 0
KSM2 120108Z 01015KT M02/M11 A3053 RMK A01 T10191107  RH  051%=      5-min Rain = 0
KSM2 120109Z 00015G21KT M02/M11 A3053 RMK A01 T10191106  RH  051%=      5-min Rain = 0
KSM2 120110Z 01018KT M02/M11 A3053 RMK A01 T10191107  RH  051%=      5-min Rain = 0
KSM2 120111Z 01015KT M02/M11 A3053 RMK A01 T10191108  RH  051%=      5-min Rain = 0
KSM2 120112Z 00015KT M02/M11 A3053 RMK A01 T10191107  RH  051%=      5-min Rain = 0
KSM2 120113Z 00018KT M02/M11 A3053 RMK A01 T10201107  RH  051%=      5-min Rain = 0
KSM2 120114Z 01014KT M02/M11 A3054 RMK A01 T10201108  RH  051%=      5-min Rain = 0
KSM2 120115Z 01015KT M02/M11 A3053 RMK A01 T10201108  RH  051%=      5-min Rain = 0
KSM2 120116Z 01013KT M02/M11 A3054 RMK A01 T10201108  RH  051%=      5-min Rain = 0
KSM2 120117Z 01015KT M02/M11 A3054 RMK A01 T10201108  RH  051%=      5-min Rain = 0
KSM2 120118Z 01012KT M02/M11 A3053 RMK A01 T10201109  RH  051%=      5-min Rain = 0
KSM2 120119Z 02014KT M02/M11 A3054 RMK A01 T10201108  RH  051%=      5-min Rain = 0
KSM2 120120Z 02016KT M02/M11 A3054 RMK A01 T10201107  RH  051%=      5-min Rain = 0
KSM2 120121Z 01016KT M02/M11 A3054 RMK A01 T10211108  RH  051%=      5-min Rain = 0
KSM2 120122Z 01014KT M02/M11 A3054 RMK A01 T10211109  RH  051%=      5-min Rain = 0
KSM2 120123Z 01014KT M02/M11 A3054 RMK A01 T10201109  RH  051%=      5-min Rain = 0
KSM2 120124Z 01014KT M02/M11 A3054 RMK A01 T10211109  RH  051%=      5-min Rain = 0
KSM2 120125Z 02012KT M02/M11 A3054 RMK A01 T10211109  RH  051%=      5-min Rain = 0
KSM2 120126Z 01014KT M02/M11 A3054 RMK A01 T10211108  RH  051%=      5-min Rain = 0
KSM2 120127Z 01014KT M02/M11 A3054 RMK A01 T10211108  RH  051%=      5-min Rain = 0
KSM2 120128Z 01013KT M02/M11 A3054 RMK A01 T10211108  RH  051%=      5-min Rain = 0
KSM2 120129Z 01012KT M02/M11 A3054 RMK A01 T10221108  RH  051%=      5-min Rain = 0
KSM2 120130Z 01012G17KT M02/M11 A3054 RMK A01 T10221108  RH  052%=      5-min Rain = 0
KSM2 120131Z 01013G18KT M02/M11 A3054 RMK A01 T10221108  RH  052%=      5-min Rain = 0
KSM2 120132Z 01014KT M02/M11 A3055 RMK A01 T10221108  RH  052%=      5-min Rain = 0
KSM2 120133Z 00013KT M02/M11 A3055 RMK A01 T10221108  RH  052%=      5-min Rain = 0
KSM2 120134Z 01015KT M02/M11 A3055 RMK A01 T10221108  RH  052%=      5-min Rain = 0
KSM2 120135Z 00013KT M02/M11 A3055 RMK A01 T10221108  RH  052%=      5-min Rain = 0
KSM2 120136Z 00013KT M02/M11 A3055 RMK A01 T10231108  RH  052%=      5-min Rain = 0
KSM2 120137Z 00012G17KT M02/M11 A3055 RMK A01 T10231108  RH  052%=      5-min Rain = 0
KSM2 120138Z 00015KT M02/M11 A3056 RMK A01 T10241109  RH  052%=      5-min Rain = 0
KSM2 120139Z 01013KT M02/M11 A3056 RMK A01 T10241109  RH  052%=      5-min Rain = 0
KSM2 120140Z 00015KT M02/M11 A3056 RMK A01 T10241109  RH  052%=      5-min Rain = 0
KSM2 120141Z 01014KT M03/M11 A3056 RMK A01 T10251110  RH  052%=      5-min Rain = 0
KSM2 120142Z 01015KT M03/M11 A3056 RMK A01 T10251111  RH  052%=      5-min Rain = 0
KSM2 120143Z 01013KT M03/M11 A3056 RMK A01 T10251112  RH  051%=      5-min Rain = 0
KSM2 120144Z 00015KT M03/M11 A3056 RMK A01 T10261112  RH  052%=      5-min Rain = 0
KSM2 120145Z 01014KT M03/M11 A3056 RMK A01 T10261113  RH  051%=      5-min Rain = 0
KSM2 120146Z 01016KT M03/M11 A3056 RMK A01 T10261113  RH  051%=      5-min Rain = 0
KSM2 120147Z 01015KT M03/M11 A3056 RMK A01 T10261114  RH  051%=      5-min Rain = 0
KSM2 120148Z 01015KT M03/M12 A3056 RMK A01 T10261115  RH  050%=      5-min Rain = 0
KSM2 120149Z 01013KT M03/M12 A3056 RMK A01 T10261115  RH  050%=      5-min Rain = 0
KSM2 120150Z 01013KT M03/M12 A3056 RMK A01 T10261115  RH  051%=      5-min Rain = 0
KSM2 120151Z 01011KT M03/M11 A3056 RMK A01 T10271114  RH  051%=      5-min Rain = 0
KSM2 120152Z 01013KT M03/M11 A3056 RMK A01 T10271114  RH  051%=      5-min Rain = 0
KSM2 120153Z 01010KT M03/M12 A3056 RMK A01 T10271116  RH  051%=      5-min Rain = 0
KSM2 120154Z 01010KT M03/M11 A3056 RMK A01 T10271114  RH  051%=      5-min Rain = 0
KSM2 120155Z 01010KT M03/M11 A3056 RMK A01 T10281114  RH  052%=      5-min Rain = 0
KSM2 120156Z 01011KT M03/M11 A3056 RMK A01 T10281113  RH  052%=      5-min Rain = 0
KSM2 120157Z 01010KT M03/M11 A3056 RMK A01 T10281113  RH  052%=      5-min Rain = 0
KSM2 120158Z 01009KT M03/M11 A3056 RMK A01 T10281113  RH  052%=      5-min Rain = 0
KSM2 120159Z 01008KT M03/M11 A3056 RMK A01 T10291112  RH  053%=      5-min Rain = 0
KSM2 120200Z 01010KT M03/M11 A3056 RMK A01 T10291112  RH  053%=      5-min Rain = 0
KSM2 120201Z 02008KT M03/M11 A3056 RMK A01 T10301113  RH  053%=      5-min Rain = 0
KSM2 120202Z 01008KT M03/M11 A3056 RMK A01 T10301113  RH  053%=      5-min Rain = 0
KSM2 120203Z 01009KT M03/M11 A3055 RMK A01 T10301113  RH  053%=      5-min Rain = 0
KSM2 120204Z 01008KT M03/M11 A3055 RMK A01 T10301112  RH  053%=      5-min Rain = 0
KSM2 120205Z 01008KT M03/M11 A3055 RMK A01 T10301112  RH  053%=      5-min Rain = 0
KSM2 120206Z 01008KT M03/M11 A3055 RMK A01 T10301113  RH  053%=      5-min Rain = 0
KSM2 120207Z 02008KT M03/M11 A3055 RMK A01 T10311113  RH  053%=      5-min Rain = 0
KSM2 120208Z 01010KT M03/M11 A3055 RMK A01 T10311114  RH  053%=      5-min Rain = 0
KSM2 120209Z 01009KT M03/M12 A3055 RMK A01 T10311115  RH  053%=      5-min Rain = 0
KSM2 120210Z 02010KT M03/M12 A3055 RMK A01 T10311115  RH  052%=      5-min Rain = 0
KSM2 120211Z 02010KT M03/M12 A3055 RMK A01 T10311116  RH  052%=      5-min Rain = 0
KSM2 120212Z 02011KT M03/M12 A3055 RMK A01 T10311117  RH  051%=      5-min Rain = 0
KSM2 120213Z 01013KT M03/M12 A3055 RMK A01 T10311121  RH  050%=      5-min Rain = 0
KSM2 120214Z 02013KT M03/M12 A3055 RMK A01 T10311123  RH  049%=      5-min Rain = 0
KSM2 120215Z 02010KT M03/M12 A3055 RMK A01 T10311123  RH  049%=      5-min Rain = 0
KSM2 120216Z 01010KT M03/M12 A3055 RMK A01 T10311122  RH  049%=      5-min Rain = 0
KSM2 120217Z 02010KT M03/M12 A3055 RMK A01 T10311122  RH  050%=      5-min Rain = 0
KSM2 120218Z 02011KT M03/M12 A3055 RMK A01 T10321121  RH  050%=      5-min Rain = 0
KSM2 120219Z 02012KT M03/M12 A3055 RMK A01 T10321123  RH  049%=      5-min Rain = 0
KSM2 120220Z 01011KT M03/M12 A3055 RMK A01 T10321124  RH  049%=      5-min Rain = 0
KSM2 120221Z 01012KT M03/M13 A3055 RMK A01 T10321125  RH  049%=      5-min Rain = 0
KSM2 120222Z 01010KT M03/M13 A3056 RMK A01 T10311125  RH  048%=      5-min Rain = 0
KSM2 120223Z 01009KT M03/M12 A3056 RMK A01 T10321124  RH  049%=      5-min Rain = 0
KSM2 120224Z 01010KT M03/M12 A3056 RMK A01 T10321124  RH  049%=      5-min Rain = 0
KSM2 120225Z 02011KT M03/M12 A3055 RMK A01 T10321124  RH  049%=      5-min Rain = 0
KSM2 120226Z 01013KT M03/M13 A3055 RMK A01 T10321125  RH  049%=      5-min Rain = 0
KSM2 120227Z 02012KT M03/M13 A3055 RMK A01 T10321126  RH  049%=      5-min Rain = 0
KSM2 120228Z 02012KT M03/M13 A3056 RMK A01 T10331125  RH  049%=      5-min Rain = 0
KSM2 120229Z 02013KT M03/M13 A3056 RMK A01 T10321125  RH  049%=      5-min Rain = 0
KSM2 120230Z 01012KT M03/M13 A3056 RMK A01 T10321126  RH  048%=      5-min Rain = 0
KSM2 120231Z 01011KT M03/M13 A3056 RMK A01 T10331127  RH  048%=      5-min Rain = 0
KSM2 120232Z 02011KT M03/M13 A3056 RMK A01 T10321126  RH  048%=      5-min Rain = 0
KSM2 120233Z 02011KT M03/M13 A3056 RMK A01 T10331126  RH  049%=      5-min Rain = 0
KSM2 120234Z 02010KT M03/M13 A3056 RMK A01 T10331126  RH  048%=      5-min Rain = 0
KSM2 120235Z 02009KT M03/M13 A3056 RMK A01 T10331125  RH  049%=      5-min Rain = 0
KSM2 120236Z 02008KT M03/M12 A3056 RMK A01 T10331124  RH  049%=      5-min Rain = 0
KSM2 120237Z 02011KT M03/M12 A3056 RMK A01 T10341123  RH  050%=      5-min Rain = 0
KSM2 120238Z 02009KT M03/M12 A3056 RMK A01 T10341124  RH  050%=      5-min Rain = 0
KSM2 120239Z 02008KT M03/M12 A3056 RMK A01 T10341123  RH  050%=      5-min Rain = 0
KSM2 120240Z 02009KT M04/M12 A3056 RMK A01 T10351123  RH  051%=      5-min Rain = 0
KSM2 120241Z 02009KT M04/M12 A3056 RMK A01 T10351123  RH  051%=      5-min Rain = 0
KSM2 120242Z 02010KT M04/M12 A3056 RMK A01 T10351123  RH  051%=      5-min Rain = 0
KSM2 120243Z 02010KT M04/M12 A3056 RMK A01 T10351123  RH  051%=      5-min Rain = 0
KSM2 120244Z 01009KT M04/M12 A3056 RMK A01 T10351123  RH  050%=      5-min Rain = 0
KSM2 120245Z 02010KT M04/M12 A3056 RMK A01 T10351123  RH  050%=      5-min Rain = 0
KSM2 120246Z 02009KT M04/M12 A3056 RMK A01 T10351124  RH  050%=      5-min Rain = 0
KSM2 120247Z 01009KT M04/M12 A3056 RMK A01 T10351124  RH  050%=      5-min Rain = 0
KSM2 120248Z 01009KT M04/M12 A3056 RMK A01 T10351124  RH  050%=      5-min Rain = 0
KSM2 120249Z 02009KT M04/M12 A3056 RMK A01 T10351124  RH  050%=      5-min Rain = 0
KSM2 120250Z 02009KT M04/M12 A3056 RMK A01 T10361124  RH  050%=      5-min Rain = 0
KSM2 120251Z 01009KT M04/M12 A3056 RMK A01 T10361123  RH  051%=      5-min Rain = 0
KSM2 120252Z 02009KT M04/M12 A3056 RMK A01 T10361123  RH  051%=      5-min Rain = 0
KSM2 120253Z 01011KT M04/M12 A3056 RMK A01 T10371123  RH  051%=      5-min Rain = 0
KSM2 120254Z 02011KT M04/M12 A3056 RMK A01 T10371124  RH  051%=      5-min Rain = 0
KSM2 120255Z 02009KT M04/M12 A3056 RMK A01 T10361123  RH  051%=      5-min Rain = 0
KSM2 120256Z 01009KT M04/M12 A3056 RMK A01 T10361123  RH  051%=      5-min Rain = 0
KSM2 120257Z 02008KT M04/M12 A3056 RMK A01 T10361123  RH  051%=      5-min Rain = 0
KSM2 120258Z 02009KT M04/M12 A3056 RMK A01 T10371123  RH  051%=      5-min Rain = 0
KSM2 120259Z 02011KT M04/M12 A3056 RMK A01 T10371123  RH  051%=      5-min Rain = 0
KSM2 120300Z 02011KT M04/M13 A3056 RMK A01 T10371125  RH  050%=      5-min Rain = 0
KSM2 120301Z 01010KT M04/M13 A3056 RMK A01 T10361125  RH  050%=      5-min Rain = 0
KSM2 120302Z 01010KT M04/M13 A3056 RMK A01 T10371125  RH  050%=      5-min Rain = 0
KSM2 120303Z 01011KT M04/M13 A3056 RMK A01 T10361125  RH  050%=      5-min Rain = 0
KSM2 120304Z 02009KT M04/M13 A3057 RMK A01 T10361125  RH  050%=      5-min Rain = 0
KSM2 120305Z 01009KT M04/M13 A3057 RMK A01 T10371125  RH  050%=      5-min Rain = 0
KSM2 120306Z 01009KT M04/M12 A3057 RMK A01 T10371124  RH  051%=      5-min Rain = 0
KSM2 120307Z 01010KT M04/M12 A3057 RMK A01 T10371123  RH  051%=      5-min Rain = 0
KSM2 120308Z 01009KT M04/M12 A3057 RMK A01 T10381123  RH  052%=      5-min Rain = 0
KSM2 120309Z 01009KT M04/M12 A3057 RMK A01 T10381123  RH  052%=      5-min Rain = 0
KSM2 120310Z 01008KT M04/M12 A3057 RMK A01 T10381123  RH  052%=      5-min Rain = 0
KSM2 120311Z 01007KT M04/M12 A3057 RMK A01 T10381123  RH  052%=      5-min Rain = 0
KSM2 120312Z 01007KT M04/M12 A3057 RMK A01 T10391123  RH  052%=      5-min Rain = 0
KSM2 120313Z 01007KT M04/M12 A3057 RMK A01 T10391123  RH  052%=      5-min Rain = 0
KSM2 120314Z 01007KT M04/M12 A3057 RMK A01 T10391123  RH  052%=      5-min Rain = 0
KSM2 120315Z 01007KT M04/M12 A3057 RMK A01 T10391122  RH  052%=      5-min Rain = 0
KSM2 120316Z 01008KT M04/M12 A3057 RMK A01 T10401122  RH  053%=      5-min Rain = 0
KSM2 120317Z 01008KT M04/M12 A3058 RMK A01 T10401122  RH  053%=      5-min Rain = 0
KSM2 120318Z 01008KT M04/M12 A3058 RMK A01 T10401122  RH  053%=      5-min Rain = 0
KSM2 120319Z 01008KT M04/M12 A3058 RMK A01 T10401122  RH  053%=      5-min Rain = 0
KSM2 120320Z 01007KT M04/M12 A3058 RMK A01 T10401122  RH  053%=      5-min Rain = 0
KSM2 120321Z 01008KT M04/M12 A3058 RMK A01 T10401121  RH  053%=      5-min Rain = 0
KSM2 120322Z 00008KT M04/M12 A3058 RMK A01 T10401122  RH  053%=      5-min Rain = 0
KSM2 120323Z 01008KT M04/M12 A3058 RMK A01 T10411122  RH  053%=      5-min Rain = 0
KSM2 120324Z 01007KT M04/M12 A3058 RMK A01 T10411122  RH  053%=      5-min Rain = 0
KSM2 120325Z 01007KT M04/M12 A3058 RMK A01 T10411122  RH  054%=      5-min Rain = 0
KSM2 120326Z 01006KT M04/M12 A3058 RMK A01 T10411122  RH  053%=      5-min Rain = 0
KSM2 120327Z 01007KT M04/M12 A3058 RMK A01 T10411122  RH  053%=      5-min Rain = 0
KSM2 120328Z 01007KT M04/M12 A3058 RMK A01 T10411122  RH  053%=      5-min Rain = 0
KSM2 120329Z 02007KT M04/M12 A3058 RMK A01 T10411121  RH  054%=      5-min Rain = 0
KSM2 120330Z 01007KT M04/M12 A3058 RMK A01 T10421121  RH  054%=      5-min Rain = 0
KSM2 120331Z 01006KT M04/M12 A3058 RMK A01 T10421121  RH  054%=      5-min Rain = 0
KSM2 120332Z 02007KT M04/M12 A3058 RMK A01 T10421121  RH  054%=      5-min Rain = 0
KSM2 120333Z 01007KT M04/M12 A3058 RMK A01 T10421120  RH  054%=      5-min Rain = 0
KSM2 120334Z 02006KT M04/M12 A3059 RMK A01 T10421120  RH  054%=      5-min Rain = 0
KSM2 120335Z 02008KT M04/M12 A3059 RMK A01 T10421120  RH  055%=      5-min Rain = 0
KSM2 120336Z 02008KT M04/M12 A3059 RMK A01 T10421121  RH  054%=      5-min Rain = 0
KSM2 120337Z 01007KT M04/M12 A3059 RMK A01 T10421121  RH  054%=      5-min Rain = 0
KSM2 120338Z 01007KT M04/M12 A3059 RMK A01 T10411120  RH  054%=      5-min Rain = 0
KSM2 120339Z 01008KT M04/M12 A3059 RMK A01 T10411121  RH  054%=      5-min Rain = 0
KSM2 120340Z 01008KT M04/M12 A3059 RMK A01 T10421121  RH  054%=      5-min Rain = 0
KSM2 120341Z 01006KT M04/M12 A3059 RMK A01 T10411121  RH  054%=      5-min Rain = 0
KSM2 120342Z 02007KT M04/M12 A3059 RMK A01 T10411121  RH  054%=      5-min Rain = 0
KSM2 120343Z 01007KT M04/M12 A3059 RMK A01 T10411121  RH  054%=      5-min Rain = 0
KSM2 120344Z 02007KT M04/M12 A3059 RMK A01 T10421121  RH  054%=      5-min Rain = 0
KSM2 120345Z 02007KT M04/M12 A3059 RMK A01 T10421120  RH  054%=      5-min Rain = 0
KSM2 120346Z 02007KT M04/M12 A3059 RMK A01 T10421120  RH  054%=      5-min Rain = 0
KSM2 120347Z 02009KT M04/M12 A3059 RMK A01 T10421121  RH  054%=      5-min Rain = 0
KSM2 120348Z 01007KT M04/M12 A3059 RMK A01 T10411121  RH  054%=      5-min Rain = 0
KSM2 120349Z 01008KT M04/M12 A3059 RMK A01 T10411121  RH  054%=      5-min Rain = 0
KSM2 120350Z 01008KT M04/M12 A3059 RMK A01 T10411121  RH  054%=      5-min Rain = 0
KSM2 120351Z 02008KT M04/M12 A3059 RMK A01 T10411120  RH  054%=      5-min Rain = 0
KSM2 120352Z 02008KT M04/M12 A3059 RMK A01 T10411121  RH  054%=      5-min Rain = 0
KSM2 120353Z 02008KT M04/M12 A3059 RMK A01 T10411121  RH  054%=      5-min Rain = 0
KSM2 120354Z 01008KT M04/M12 A3059 RMK A01 T10411120  RH  054%=      5-min Rain = 0
KSM2 120355Z 02008KT M04/M12 A3059 RMK A01 T10411121  RH  054%=      5-min Rain = 0
KSM2 120356Z 02008KT M04/M12 A3059 RMK A01 T10411120  RH  054%=      5-min Rain = 0
KSM2 120357Z 02007KT M04/M12 A3059 RMK A01 T10421119  RH  055%=      5-min Rain = 0
KSM2 120358Z 02007KT M04/M12 A3059 RMK A01 T10421119  RH  055%=      5-min Rain = 0
KSM2 120359Z 02008KT M04/M12 A3059 RMK A01 T10431119  RH  055%=      5-min Rain = 0
KSM2 120400Z 02009KT M04/M12 A3059 RMK A01 T10421119  RH  055%=      5-min Rain = 0
KSM2 120401Z 02008KT M04/M12 A306 RMK A01 T10421120  RH  055%=      5-min Rain = 0
KSM2 120402Z 02009KT M04/M12 A306 RMK A01 T10431120  RH  055%=      5-min Rain = 0
KSM2 120403Z 02007KT M04/M12 A306 RMK A01 T10421120  RH  055%=      5-min Rain = 0
KSM2 120404Z 02008KT M04/M12 A306 RMK A01 T10421120  RH  055%=      5-min Rain = 0
KSM2 120405Z 02007KT M04/M12 A306 RMK A01 T10431120  RH  055%=      5-min Rain = 0
KSM2 120406Z 02007KT M04/M12 A306 RMK A01 T10421119  RH  055%=      5-min Rain = 0
KSM2 120407Z 02007KT M04/M12 A306 RMK A01 T10431119  RH  055%=      5-min Rain = 0
KSM2 120408Z 02007KT M04/M12 A306 RMK A01 T10431120  RH  055%=      5-min Rain = 0
KSM2 120409Z 01006KT M04/M12 A306 RMK A01 T10431119  RH  055%=      5-min Rain = 0
KSM2 120410Z 01007KT M04/M12 A306 RMK A01 T10431119  RH  056%=      5-min Rain = 0
KSM2 120411Z 02006KT M04/M12 A306 RMK A01 T10441119  RH  056%=      5-min Rain = 0
KSM2 120412Z 01006KT M04/M12 A306 RMK A01 T10441119  RH  056%=      5-min Rain = 0
KSM2 120413Z 02005KT M05/M12 A306 RMK A01 T10451119  RH  056%=      5-min Rain = 0
KSM2 120414Z 01006KT M05/M12 A306 RMK A01 T10451119  RH  056%=      5-min Rain = 0
KSM2 120415Z 02007KT M05/M12 A306 RMK A01 T10451118  RH  056%=      5-min Rain = 0
KSM2 120416Z 02006KT M05/M12 A306 RMK A01 T10451120  RH  056%=      5-min Rain = 0
KSM2 120417Z 01006KT M04/M12 A306 RMK A01 T10441119  RH  056%=      5-min Rain = 0
KSM2 120418Z 01006KT M04/M12 A306 RMK A01 T10441119  RH  056%=      5-min Rain = 0
KSM2 120419Z 02006KT M05/M12 A306 RMK A01 T10451119  RH  056%=      5-min Rain = 0
KSM2 120420Z 02008KT M05/M12 A306 RMK A01 T10451119  RH  057%=      5-min Rain = 0
KSM2 120421Z 02007KT M05/M12 A306 RMK A01 T10451120  RH  056%=      5-min Rain = 0
KSM2 120422Z 01006KT M04/M12 A306 RMK A01 T10441120  RH  056%=      5-min Rain = 0
KSM2 120423Z 01006KT M04/M12 A306 RMK A01 T10441119  RH  056%=      5-min Rain = 0
KSM2 120424Z 01005KT M05/M12 A306 RMK A01 T10451119  RH  056%=      5-min Rain = 0
KSM2 120425Z 01006KT M05/M12 A306 RMK A01 T10461119  RH  057%=      5-min Rain = 0
KSM2 120426Z 01005KT M05/M12 A306 RMK A01 T10461119  RH  057%=      5-min Rain = 0
KSM2 120427Z 01005KT M05/M12 A306 RMK A01 T10461118  RH  057%=      5-min Rain = 0
KSM2 120428Z 02006KT M05/M12 A306 RMK A01 T10471118  RH  057%=      5-min Rain = 0
KSM2 120429Z 01006KT M05/M12 A306 RMK A01 T10471118  RH  057%=      5-min Rain = 0
KSM2 120430Z 02007KT M05/M12 A306 RMK A01 T10461118  RH  057%=      5-min Rain = 0
KSM2 120431Z 01006KT M05/M12 A306 RMK A01 T10471117  RH  058%=      5-min Rain = 0
KSM2 120432Z 02006KT M05/M12 A306 RMK A01 T10471118  RH  058%=      5-min Rain = 0
KSM2 120433Z 02006KT M05/M12 A306 RMK A01 T10471117  RH  058%=      5-min Rain = 0
KSM2 120434Z 01006KT M05/M12 A306 RMK A01 T10481117  RH  058%=      5-min Rain = 0
KSM2 120435Z 01007KT M05/M12 A306 RMK A01 T10481117  RH  059%=      5-min Rain = 0
KSM2 120436Z 02006KT M05/M12 A306 RMK A01 T10481117  RH  059%=      5-min Rain = 0
KSM2 120437Z 01007KT M05/M12 A306 RMK A01 T10481117  RH  059%=      5-min Rain = 0
KSM2 120438Z 01007KT M05/M12 A306 RMK A01 T10481117  RH  058%=      5-min Rain = 0
KSM2 120439Z 01006KT M05/M12 A306 RMK A01 T10481117  RH  058%=      5-min Rain = 0
KSM2 120440Z 01006KT M05/M12 A306 RMK A01 T10481116  RH  059%=      5-min Rain = 0
KSM2 120441Z 01007KT M05/M12 A306 RMK A01 T10481116  RH  059%=      5-min Rain = 0
KSM2 120442Z 01006KT M05/M12 A3059 RMK A01 T10481116  RH  059%=      5-min Rain = 0
KSM2 120443Z 01006KT M05/M12 A3059 RMK A01 T10491116  RH  059%=      5-min Rain = 0
KSM2 120444Z 01006KT M05/M12 A3059 RMK A01 T10491116  RH  059%=      5-min Rain = 0
KSM2 120445Z 01007KT M05/M12 A3059 RMK A01 T10491116  RH  059%=      5-min Rain = 0
KSM2 120446Z 01007KT M05/M12 A3059 RMK A01 T10491116  RH  059%=      5-min Rain = 0
KSM2 120447Z 01007KT M05/M12 A3059 RMK A01 T10491117  RH  059%=      5-min Rain = 0
KSM2 120448Z 01006KT M05/M12 A3059 RMK A01 T10491117  RH  059%=      5-min Rain = 0
KSM2 120449Z 01006KT M05/M12 A3059 RMK A01 T10491116  RH  059%=      5-min Rain = 0
KSM2 120450Z 01007KT M05/M12 A3059 RMK A01 T10501116  RH  060%=      5-min Rain = 0
KSM2 120451Z 01007KT M05/M12 A3059 RMK A01 T10501116  RH  060%=      5-min Rain = 0
KSM2 120452Z 01007KT M05/M12 A3059 RMK A01 T10501116  RH  060%=      5-min Rain = 0
KSM2 120453Z 01007KT M05/M12 A3059 RMK A01 T10501117  RH  060%=      5-min Rain = 0
KSM2 120454Z 00007KT M05/M12 A3059 RMK A01 T10501117  RH  060%=      5-min Rain = 0
KSM2 120455Z 01007KT M05/M12 A3059 RMK A01 T10511117  RH  060%=      5-min Rain = 0
KSM2 120456Z 01007KT M05/M12 A3059 RMK A01 T10511117  RH  060%=      5-min Rain = 0
KSM2 120457Z 01007KT M05/M12 A3059 RMK A01 T10511117  RH  060%=      5-min Rain = 0
KSM2 120458Z 01009KT M05/M12 A306 RMK A01 T10521117  RH  060%=      5-min Rain = 0
KSM2 120459Z 01007KT M05/M12 A306 RMK A01 T10511118  RH  060%=      5-min Rain = 0
KSM2 120500Z 01007KT M05/M12 A306 RMK A01 T10511118  RH  060%=      5-min Rain = 0
KSM2 120501Z 01007KT M05/M12 A306 RMK A01 T10511117  RH  060%=      5-min Rain = 0
KSM2 120502Z 01006KT M05/M12 A306 RMK A01 T10511117  RH  060%=      5-min Rain = 0
KSM2 120503Z 01007KT M05/M12 A306 RMK A01 T10511117  RH  060%=      5-min Rain = 0
KSM2 120504Z 02007KT M05/M12 A306 RMK A01 T10521117  RH  060%=      5-min Rain = 0
KSM2 120505Z 02007KT M05/M12 A306 RMK A01 T10521117  RH  060%=      5-min Rain = 0
KSM2 120506Z 02006KT M05/M12 A306 RMK A01 T10511117  RH  060%=      5-min Rain = 0
KSM2 120507Z 02007KT M05/M12 A306 RMK A01 T10511116  RH  060%=      5-min Rain = 0
KSM2 120508Z 02007KT M05/M12 A306 RMK A01 T10521116  RH  061%=      5-min Rain = 0
KSM2 120509Z 02007KT M05/M12 A306 RMK A01 T10521116  RH  061%=      5-min Rain = 0
KSM2 120510Z 02007KT M05/M12 A306 RMK A01 T10521116  RH  061%=      5-min Rain = 0
KSM2 120511Z 02007KT M05/M12 A306 RMK A01 T10521115  RH  061%=      5-min Rain = 0
KSM2 120512Z 02006KT M05/M12 A306 RMK A01 T10521116  RH  061%=      5-min Rain = 0
KSM2 120513Z 02006KT M05/M12 A306 RMK A01 T10521116  RH  061%=      5-min Rain = 0
KSM2 120514Z 02006KT M05/M12 A3059 RMK A01 T10521116  RH  061%=      5-min Rain = 0
KSM2 120515Z 02006KT M05/M12 A3059 RMK A01 T10531116  RH  061%=      5-min Rain = 0
KSM2 120516Z 02007KT M05/M12 A3059 RMK A01 T10531115  RH  062%=      5-min Rain = 0
KSM2 120517Z 02006KT M05/M12 A3059 RMK A01 T10531115  RH  062%=      5-min Rain = 0
KSM2 120518Z 02006KT M05/M11 A3059 RMK A01 T10531114  RH  062%=      5-min Rain = 0
KSM2 120519Z 02006KT M05/M12 A3059 RMK A01 T10541115  RH  062%=      5-min Rain = 0
KSM2 120520Z 02006KT M05/M12 A3059 RMK A01 T10541115  RH  062%=      5-min Rain = 0
KSM2 120521Z 02007KT M05/M12 A306 RMK A01 T10531115  RH  062%=      5-min Rain = 0
KSM2 120522Z 02006KT M05/M12 A306 RMK A01 T10531116  RH  062%=      5-min Rain = 0
KSM2 120523Z 03007KT M05/M12 A306 RMK A01 T10531116  RH  061%=      5-min Rain = 0
KSM2 120524Z 03007KT M05/M12 A306 RMK A01 T10531118  RH  060%=      5-min Rain = 0
KSM2 120525Z 03009KT M05/M12 A306 RMK A01 T10521118  RH  060%=      5-min Rain = 0
KSM2 120526Z 02008KT M05/M12 A306 RMK A01 T10521120  RH  059%=      5-min Rain = 0
KSM2 120527Z 02008KT M05/M12 A306 RMK A01 T10511122  RH  058%=      5-min Rain = 0
KSM2 120528Z 02007KT M05/M12 A306 RMK A01 T10511123  RH  057%=      5-min Rain = 0
KSM2 120529Z 02009KT M05/M12 A306 RMK A01 T10511123  RH  057%=      5-min Rain = 0
KSM2 120530Z 02011KT M05/M12 A306 RMK A01 T10511124  RH  056%=      5-min Rain = 0
KSM2 120531Z 02008KT M05/M13 A306 RMK A01 T10501127  RH  055%=      5-min Rain = 0
KSM2 120532Z 02009KT M05/M13 A306 RMK A01 T10501127  RH  055%=      5-min Rain = 0
KSM2 120533Z 02010G15KT M05/M13 A306 RMK A01 T10501127  RH  055%=      5-min Rain = 0
KSM2 120534Z 02012KT M05/M13 A306 RMK A01 T10501128  RH  054%=      5-min Rain = 0
KSM2 120535Z 02011KT M05/M13 A306 RMK A01 T10501130  RH  054%=      5-min Rain = 0
KSM2 120536Z 02011KT M05/M13 A306 RMK A01 T10501130  RH  054%=      5-min Rain = 0
KSM2 120537Z 02008KT M05/M13 A306 RMK A01 T10501129  RH  054%=      5-min Rain = 0
KSM2 120538Z 02008KT M05/M13 A3061 RMK A01 T10501128  RH  054%=      5-min Rain = 0
KSM2 120539Z 02008KT M05/M13 A3061 RMK A01 T10511128  RH  055%=      5-min Rain = 0
KSM2 120540Z 02009KT M05/M13 A3061 RMK A01 T10511128  RH  055%=      5-min Rain = 0
KSM2 120541Z 02009KT M05/M13 A3061 RMK A01 T10511129  RH  055%=      5-min Rain = 0
KSM2 120542Z 02009KT M05/M13 A3061 RMK A01 T10521129  RH  055%=      5-min Rain = 0
KSM2 120543Z 02009KT M05/M13 A3061 RMK A01 T10521129  RH  055%=      5-min Rain = 0
KSM2 120544Z 02008KT M05/M13 A3061 RMK A01 T10511129  RH  055%=      5-min Rain = 0
KSM2 120545Z 02009KT M05/M13 A3061 RMK A01 T10521129  RH  055%=      5-min Rain = 0
KSM2 120546Z 02009KT M05/M13 A306 RMK A01 T10521129  RH  055%=      5-min Rain = 0
KSM2 120547Z 02009KT M05/M13 A306 RMK A01 T10521129  RH  055%=      5-min Rain = 0
KSM2 120548Z 02008KT M05/M13 A306 RMK A01 T10521129  RH  055%=      5-min Rain = 0
KSM2 120549Z 02007KT M05/M13 A306 RMK A01 T10531129  RH  055%=      5-min Rain = 0
KSM2 120550Z 02007KT M05/M13 A306 RMK A01 T10531128  RH  056%=      5-min Rain = 0
KSM2 120551Z 02008KT M05/M13 A306 RMK A01 T10531128  RH  056%=      5-min Rain = 0
KSM2 120552Z 01008KT M05/M13 A3061 RMK A01 T10541128  RH  056%=      5-min Rain = 0
KSM2 120553Z 01009KT M05/M13 A3061 RMK A01 T10541128  RH  056%=      5-min Rain = 0
KSM2 120554Z 02007KT M05/M13 A3061 RMK A01 T10541128  RH  056%=      5-min Rain = 0
KSM2 120555Z 02008KT M05/M13 A3061 RMK A01 T10541128  RH  056%=      5-min Rain = 0
KSM2 120556Z 02007KT M05/M13 A3061 RMK A01 T10541127  RH  056%=      5-min Rain = 0
KSM2 120557Z 01008KT M06/M13 A3061 RMK A01 T10551128  RH  056%=      5-min Rain = 0
KSM2 120558Z 02007KT M06/M13 A3061 RMK A01 T10551128  RH  056%=      5-min Rain = 0
KSM2 120559Z 01007KT M06/M13 A3061 RMK A01 T10551128  RH  056%=      5-min Rain = 0

Page generated in 0.0724 seconds.